Insider Transactions for RAYTHEON TECHNOLOGIES CORP (RTX)

Owner Relationship Date Transaction Cost # Shares Value($) Total Shares Form 4
Wood Michael J Corporate VP and Controller Jan 25, 2021 Option Exercise $66.28 2,047 135,675 33,976 Jan 26, 2021, 05:10 PM
O'Brien Anthony F EVP, Chief Financial Officer Jan 25, 2021 Option Exercise $66.28 9,208 610,306 105,575 Jan 26, 2021, 05:10 PM
Kremer Wesley D President, RMD Jan 25, 2021 Option Exercise $66.28 7,079 469,196 83,137 Jan 26, 2021, 05:10 PM
Kennedy Thomas A Executive Chairman Jan 25, 2021 Option Exercise $66.28 39,318 2,605,997 422,224 Jan 26, 2021, 05:10 PM
Jimenez Frank R EVP and General Counsel Jan 25, 2021 Option Exercise $66.28 7,680 509,030 75,670 Jan 26, 2021, 05:10 PM
DaSilva Kevin G Corporate VP and Treasurer Jan 25, 2021 Option Exercise $66.28 2,050 135,874 42,208 Jan 26, 2021, 05:10 PM
Azevedo Roy President, RIS Jan 25, 2021 Option Exercise $66.28 4,747 314,631 48,574 Jan 26, 2021, 05:10 PM
Williams Dantaya M EVP & Chief HR Officer Jan 04, 2021 Option Exercise $68.43 911 62,340 6,599 Jan 05, 2021, 05:03 PM
HAYES GREGORY President and CEO Jan 04, 2021 Option Exercise $68.43 54,374 3,720,813 368,403 Jan 05, 2021, 05:03 PM
Dumais Michael R EVP, Operations & Strategy Jan 04, 2021 Option Exercise $68.43 12,420 849,901 60,418 Jan 05, 2021, 05:03 PM
Calio Christopher T. President, P&W Jan 04, 2021 Option Exercise $68.43 4,874 333,528 20,826 Jan 05, 2021, 05:03 PM
Ortberg Robert Kelly Special Advisor to Off of CEO Dec 04, 2020 Option Exercise $73.91 5,249 387,954 119,134 Dec 08, 2020, 05:15 PM
Timm Stephen J. President, Collins Aerospace Nov 13, 2020 Option Exercise $66.15 314 20,771 3,031 Nov 17, 2020, 05:06 PM
Ortberg Robert Kelly Special Advisor to Off of CEO Nov 13, 2020 Option Exercise $66.15 6,660 440,559 119,134 Nov 17, 2020, 05:05 PM
Jimenez Frank R EVP and General Counsel Oct 29, 2020 Buy $52.57 1,000 52,570 61,113 Oct 30, 2020, 09:17 AM
Kennedy Thomas A Executive Chairman Oct 29, 2020 Buy $52.47 19,059 1,000,016 362,541 Oct 30, 2020, 09:17 AM
Paliwal Dinesh C Director Oct 29, 2020 Buy $52.41 9,532 499,546 19,947 Oct 30, 2020, 09:15 AM
Winnefeld James A Jr Director Oct 28, 2020 Buy $55.20 500 27,600 7,860 Oct 30, 2020, 09:15 AM
HAYES GREGORY President and CEO Oct 28, 2020 Option Exercise $52.34 6,409 335,447 11,853 Oct 30, 2020, 09:15 AM
HAYES GREGORY President and CEO Oct 28, 2020 Buy $54.82 55,000 3,014,998 255,365 Oct 30, 2020, 09:15 AM
Ortberg Robert Kelly Special Advisor to Off of CEO Oct 02, 2020 Option Exercise $59.34 19,737 1,171,194 108,738 Oct 05, 2020, 06:06 PM
Ortberg Robert Kelly Special Advisor to Off of CEO Oct 01, 2020 Option Exercise $57.46 2,057 118,195 77,306 Oct 05, 2020, 06:06 PM
Ortberg Robert Kelly Special Advisor to Off of CEO Sep 08, 2020 Buy $59.49 3 178 77,306 Oct 05, 2020, 06:06 PM
HAYES GREGORY President and CEO Oct 01, 2020 Option Exercise $57.46 9,104 523,116 203,045 Oct 05, 2020, 06:06 PM
Dumais Michael R EVP, Operations & Strategy Oct 01, 2020 Option Exercise $57.46 2,266 130,204 30,824 Oct 05, 2020, 06:05 PM
Timm Stephen J. President, Collins Aerospace Oct 02, 2020 Option Exercise $59.34 941 55,839 2,644 Oct 05, 2020, 06:05 PM
Timm Stephen J. President, Collins Aerospace Oct 01, 2020 Option Exercise $57.46 81 4,654 1,482 Oct 05, 2020, 06:05 PM
O'Brien Anthony F EVP, Chief Financial Officer Sep 14, 2020 Option Exercise $61.97 3,220 199,543 89,873 Sep 16, 2020, 06:42 PM
Kremer Wesley D President, RMD Sep 14, 2020 Option Exercise $61.97 2,578 159,759 69,955 Sep 16, 2020, 06:41 PM
Azevedo Roy President, RIS Sep 14, 2020 Option Exercise $61.97 1,968 121,957 38,296 Sep 16, 2020, 06:41 PM
Kennedy Thomas A Executive Chairman Sep 14, 2020 Option Exercise $61.97 13,530 838,454 354,390 Sep 16, 2020, 06:41 PM
Winnefeld James A Jr Director Jul 31, 2020 Buy $56.55 407 23,016 7,360 Aug 04, 2020, 05:10 PM
DaSilva Kevin G Corporate VP and Treasurer Apr 03, 2020 Option Exercise $49.93 796 39,744 37,585 Apr 08, 2020, 12:44 PM
O'Brien Anthony F EVP, Chief Financial Officer Apr 03, 2020 Option Exercise $49.93 2,841 141,851 87,473 Apr 08, 2020, 12:41 PM
Kremer Wesley D President, RMD Apr 03, 2020 Option Exercise $49.93 2,614 130,517 68,028 Apr 08, 2020, 12:38 PM
Azevedo Roy President, RIS Apr 03, 2020 Option Exercise $49.93 374 18,674 36,926 Apr 08, 2020, 12:36 PM
Jimenez Frank R EVP and General Counsel Apr 03, 2020 Option Exercise $49.93 2,272 113,441 60,113 Apr 08, 2020, 12:33 PM
Wood Michael J Corporate VP and Controller Apr 03, 2020 Option Exercise $49.93 796 39,744 29,350 Apr 08, 2020, 12:30 PM
Kennedy Thomas A Executive Chairman Apr 03, 2020 Option Exercise $49.93 8,260 412,422 343,482 Apr 08, 2020, 12:25 PM
Amato Elizabeth B EVP & Chief HR Officer Mar 04, 2020 Sale $139.56 4,185 584,041 17,887 Mar 05, 2020, 04:26 PM
Amato Elizabeth B EVP & Chief HR Officer Feb 12, 2020 Sale $155.18 12,546 1,946,940 22,072 Feb 14, 2020, 04:25 PM
Gitlin David L. President & CEO, Carrier Feb 12, 2020 Option Exercise $155.48 49,597 7,711,341 57,456 Feb 14, 2020, 04:25 PM
Gitlin David L. President & CEO, Carrier Feb 12, 2020 Option Exercise $87.20 88,436 7,711,847 107,053 Feb 14, 2020, 04:25 PM
Gitlin David L. President & CEO, Carrier Feb 12, 2020 Sale $154.12 51,491 7,935,947 5,965 Feb 14, 2020, 04:25 PM
HAYES GREGORY Chairman, President and CEO Feb 12, 2020 Option Exercise $154.50 58,174 8,987,883 198,031 Feb 14, 2020, 04:25 PM
HAYES GREGORY Chairman, President and CEO Feb 12, 2020 Option Exercise $84.00 107,000 8,988,000 349,121 Feb 14, 2020, 04:25 PM
HAYES GREGORY Chairman, President and CEO Feb 12, 2020 Sale $154.41 92,916 14,347,069 339,121 Feb 14, 2020, 04:25 PM
Dumais Michael R EVP, Operations & Strategy Feb 12, 2020 Option Exercise $154.35 9,669 1,492,410 39,951 Feb 14, 2020, 04:25 PM
Dumais Michael R EVP, Operations & Strategy Feb 12, 2020 Option Exercise $74.79 19,956 1,492,509 57,973 Feb 14, 2020, 04:25 PM
Dumais Michael R EVP, Operations & Strategy Feb 12, 2020 Sale $154.35 18,640 2,877,103 49,620 Feb 14, 2020, 04:25 PM
Whitehouse David R Corp VP, Treasurer Feb 10, 2020 Option Exercise $156.55 1,893 296,349 10,986 Feb 12, 2020, 04:38 PM
Whitehouse David R Corp VP, Treasurer Feb 10, 2020 Option Exercise $156.55 595 93,147 10,391 Feb 12, 2020, 04:38 PM
Gill Charles D Executive VP & General Counsel Feb 10, 2020 Option Exercise $156.55 15,618 2,444,998 53,058 Feb 12, 2020, 04:29 PM
Gill Charles D Executive VP & General Counsel Feb 10, 2020 Option Exercise $156.55 7,246 1,134,361 45,812 Feb 12, 2020, 04:29 PM
Calio Christopher T. President, P&W Feb 10, 2020 Option Exercise $156.55 3,990 624,635 8,372 Feb 12, 2020, 04:29 PM
Calio Christopher T. President, P&W Feb 10, 2020 Option Exercise $156.55 1,257 196,783 7,115 Feb 12, 2020, 04:29 PM
HAYES GREGORY Chairman, President and CEO Feb 10, 2020 Option Exercise $156.55 57,570 9,012,584 268,845 Feb 12, 2020, 04:29 PM
HAYES GREGORY Chairman, President and CEO Feb 10, 2020 Option Exercise $156.55 26,724 4,183,642 242,121 Feb 12, 2020, 04:29 PM
Gitlin David L. President & CEO, Carrier Feb 10, 2020 Option Exercise $156.55 20,862 3,265,946 26,827 Feb 12, 2020, 04:29 PM
Gitlin David L. President & CEO, Carrier Feb 10, 2020 Option Exercise $156.55 8,210 1,285,276 18,617 Feb 12, 2020, 04:29 PM
Amato Elizabeth B EVP & Chief HR Officer Feb 10, 2020 Option Exercise $156.55 15,618 2,444,998 41,863 Feb 12, 2020, 04:27 PM
Amato Elizabeth B EVP & Chief HR Officer Feb 10, 2020 Option Exercise $156.55 7,245 1,134,205 34,618 Feb 12, 2020, 04:27 PM
Dumais Michael R EVP, Operations & Strategy Feb 10, 2020 Option Exercise $156.55 15,618 2,444,998 45,282 Feb 12, 2020, 04:27 PM
Dumais Michael R EVP, Operations & Strategy Feb 10, 2020 Option Exercise $156.55 7,265 1,137,336 38,017 Feb 12, 2020, 04:27 PM
Mitchill Neil G. JR Acting Sr. VP & CFO Feb 10, 2020 Option Exercise $156.55 3,990 624,635 9,182 Feb 12, 2020, 04:27 PM
Mitchill Neil G. JR Acting Sr. VP & CFO Feb 10, 2020 Option Exercise $156.55 1,256 196,627 7,926 Feb 12, 2020, 04:27 PM
Bailey Robert J. Corporate VP, Controller Feb 10, 2020 Option Exercise $156.55 1,893 296,349 2,727 Feb 12, 2020, 04:27 PM
Bailey Robert J. Corporate VP, Controller Feb 10, 2020 Option Exercise $156.55 620 97,061 2,107 Feb 12, 2020, 04:27 PM
Amato Elizabeth B EVP & Chief HR Officer Dec 12, 2017 Buy $123.53 44 5,435 21,516 Jan 31, 2020, 05:53 PM
Amato Elizabeth B EVP & Chief HR Officer Sep 12, 2017 Buy $110.31 50 5,516 21,544 Jan 31, 2020, 05:53 PM
Amato Elizabeth B EVP & Chief HR Officer Sep 11, 2018 Buy $133.06 43 5,722 21,796 Jan 31, 2020, 05:53 PM
Amato Elizabeth B EVP & Chief HR Officer Jun 12, 2018 Buy $128.32 42 5,389 21,703 Jan 31, 2020, 05:53 PM
Amato Elizabeth B EVP & Chief HR Officer Mar 13, 2018 Buy $131.93 42 5,541 23,883 Jan 31, 2020, 05:53 PM
Gitlin David L. President & CEO, Carrier Jan 03, 2020 Option Exercise $153.35 1,952 299,339 5,965 Jan 07, 2020, 04:30 PM
HAYES GREGORY Chairman, President and CEO Jan 03, 2020 Option Exercise $153.35 8,688 1,332,305 211,275 Jan 07, 2020, 04:27 PM
LEDUC ROBERT F President, Pratt & Whitney Jan 03, 2020 Option Exercise $153.35 2,505 384,142 65,415 Jan 07, 2020, 04:27 PM
JOHRI AKHIL Special Advisor to Chmn/CEO Jan 03, 2020 Option Exercise $153.35 2,280 349,638 61,311 Jan 07, 2020, 04:27 PM
Gill Charles D Executive VP & General Counsel Jan 03, 2020 Option Exercise $153.35 1,708 261,922 37,440 Jan 07, 2020, 04:27 PM
Amato Elizabeth B EVP & Chief HR Officer Jan 03, 2020 Option Exercise $153.35 1,711 262,382 26,024 Jan 07, 2020, 04:26 PM
Dumais Michael R EVP, Operations & Strategy Jan 03, 2020 Option Exercise $153.35 1,714 262,842 29,664 Jan 07, 2020, 04:25 PM
Whitehouse David R Corp VP, Treasurer Jan 03, 2020 Option Exercise $153.35 874 134,028 9,093 Jan 07, 2020, 04:25 PM
Calio Christopher T. Pres, Comm Engines, P&W Jan 03, 2020 Option Exercise $153.35 516 79,129 4,382 Jan 07, 2020, 04:25 PM
Mitchill Neil G. JR Acting Sr. VP & CFO Jan 03, 2020 Option Exercise $153.35 516 79,129 5,192 Jan 07, 2020, 04:25 PM
Bailey Robert J. Corporate VP, Controller Jan 03, 2020 Option Exercise $153.35 342 52,446 834 Jan 07, 2020, 04:24 PM
Ortberg Robert Kelly CEO, Collins Aerospace Systems Nov 13, 2019 Option Exercise $148.31 3,103 460,206 77,222 Nov 15, 2019, 04:27 PM
Gill Charles D Executive VP & General Counsel Oct 24, 2019 Sale $141.17 3,694 521,489 33,264 Nov 15, 2019, 04:26 PM
Bailey Robert J. Corporate VP, Controller Nov 07, 2019 Option Exercise $149.11 1,301 193,992 0 Nov 08, 2019, 04:23 PM
Bailey Robert J. Corporate VP, Controller Nov 07, 2019 Option Exercise $74.66 2,600 194,116 2,600 Nov 08, 2019, 04:23 PM
Bailey Robert J. Corporate VP, Controller Nov 07, 2019 Sale $149.17 1,299 193,766 1,301 Nov 08, 2019, 04:23 PM
LEDUC ROBERT F President, Pratt & Whitney Nov 04, 2019 Option Exercise $147.00 26,092 3,835,625 73,157 Nov 06, 2019, 04:25 PM
LEDUC ROBERT F President, Pratt & Whitney Nov 04, 2019 Option Exercise $79.09 48,500 3,835,830 119,270 Nov 06, 2019, 04:25 PM
LEDUC ROBERT F President, Pratt & Whitney Nov 04, 2019 Sale $147.01 33,175 4,877,110 109,424 Nov 06, 2019, 04:25 PM
HAYES GREGORY Chairman, President and CEO Nov 04, 2019 Option Exercise $147.79 61,631 9,108,445 198,031 Nov 06, 2019, 04:25 PM
HAYES GREGORY Chairman, President and CEO Nov 04, 2019 Option Exercise $74.66 122,000 9,108,520 287,649 Nov 06, 2019, 04:25 PM
HAYES GREGORY Chairman, President and CEO Nov 04, 2019 Sale $147.79 27,987 4,136,176 259,662 Nov 06, 2019, 04:25 PM
JOHRI AKHIL Special Advisor to Chmn/CEO Nov 04, 2019 Option Exercise $147.49 6,025 888,627 56,095 Nov 06, 2019, 04:25 PM
JOHRI AKHIL Special Advisor to Chmn/CEO Nov 04, 2019 Option Exercise $78.99 11,250 888,637 67,345 Nov 06, 2019, 04:25 PM
JOHRI AKHIL Special Advisor to Chmn/CEO Nov 04, 2019 Sale $147.47 5,225 770,532 62,120 Nov 06, 2019, 04:25 PM
Dumais Michael R EVP, Operations & Strategy Nov 01, 2019 Option Exercise $145.93 5,125 747,891 25,494 Nov 05, 2019, 04:24 PM
Dumais Michael R EVP, Operations & Strategy Nov 01, 2019 Option Exercise $74.79 10,000 747,900 37,173 Nov 05, 2019, 04:24 PM
Dumais Michael R EVP, Operations & Strategy Nov 01, 2019 Sale $145.91 6,554 956,264 35,494 Nov 05, 2019, 04:24 PM
Dumais Michael R EVP, Operations & Strategy Oct 25, 2019 Option Exercise $143.19 10,446 1,495,763 27,173 Oct 28, 2019, 04:24 PM
Dumais Michael R EVP, Operations & Strategy Oct 25, 2019 Option Exercise $74.79 20,000 1,495,800 49,173 Oct 28, 2019, 04:24 PM
Dumais Michael R EVP, Operations & Strategy Oct 25, 2019 Sale $143.29 11,554 1,655,536 47,173 Oct 28, 2019, 04:24 PM
Gill Charles D Executive VP & General Counsel Oct 24, 2019 Option Exercise $142.17 10,782 1,532,877 36,958 Oct 25, 2019, 04:24 PM
Gill Charles D Executive VP & General Counsel Oct 24, 2019 Option Exercise $84.00 18,250 1,533,000 55,208 Oct 25, 2019, 04:24 PM
Gill Charles D Executive VP & General Counsel Oct 24, 2019 Sale $142.19 7,468 1,061,888 47,740 Oct 25, 2019, 04:24 PM
Calio Christopher T. Pres, Comm Engines, P&W Oct 24, 2019 Option Exercise $143.04 3,027 432,982 3,401 Oct 25, 2019, 04:23 PM
Calio Christopher T. Pres, Comm Engines, P&W Oct 24, 2019 Option Exercise $74.66 5,800 433,028 9,201 Oct 25, 2019, 04:23 PM
Calio Christopher T. Pres, Comm Engines, P&W Oct 24, 2019 Sale $143.01 2,773 396,576 6,428 Oct 25, 2019, 04:23 PM
JOHRI AKHIL Executive VP and CFO Sep 11, 2019 Option Exercise $135.25 6,570 888,593 56,095 Sep 13, 2019, 04:25 PM
JOHRI AKHIL Executive VP and CFO Sep 11, 2019 Option Exercise $78.99 11,250 888,637 67,345 Sep 13, 2019, 04:25 PM
JOHRI AKHIL Executive VP and CFO Sep 11, 2019 Sale $135.29 4,680 633,135 62,665 Sep 13, 2019, 04:25 PM
Gill Charles D Executive VP & General Counsel Sep 11, 2019 Option Exercise $135.05 41,737 5,636,567 64,881 Sep 13, 2019, 04:25 PM
Gill Charles D Executive VP & General Counsel Sep 11, 2019 Option Exercise $74.66 75,500 5,636,830 112,458 Sep 13, 2019, 04:25 PM
Gill Charles D Executive VP & General Counsel Sep 11, 2019 Sale $135.04 33,763 4,559,368 101,279 Sep 13, 2019, 04:25 PM
Amato Elizabeth B EVP & Chief HR Officer Sep 12, 2019 Option Exercise $137.14 5,587 766,201 21,801 Sep 13, 2019, 04:25 PM
Amato Elizabeth B EVP & Chief HR Officer Sep 12, 2019 Option Exercise $78.99 9,700 766,203 31,501 Sep 13, 2019, 04:25 PM
Amato Elizabeth B EVP & Chief HR Officer Sep 12, 2019 Sale $137.18 4,113 564,208 27,388 Sep 13, 2019, 04:25 PM
HAYES GREGORY Chairman, President and CEO Sep 06, 2019 Option Exercise $133.55 60,920 8,135,866 165,649 Sep 10, 2019, 04:28 PM
HAYES GREGORY Chairman, President and CEO Sep 06, 2019 Option Exercise $78.99 103,000 8,135,970 246,111 Sep 10, 2019, 04:28 PM
HAYES GREGORY Chairman, President and CEO Sep 06, 2019 Sale $133.35 19,542 2,605,855 226,569 Sep 10, 2019, 04:28 PM
Bailey Robert J. Corporate VP, Controller Sep 09, 2019 Option Exercise $135.07 1,169 157,897 0 Sep 10, 2019, 04:27 PM
Bailey Robert J. Corporate VP, Controller Sep 09, 2019 Option Exercise $78.99 2,000 157,980 2,000 Sep 10, 2019, 04:27 PM
Bailey Robert J. Corporate VP, Controller Sep 09, 2019 Sale $135.09 831 112,260 1,169 Sep 10, 2019, 04:27 PM
LEDUC ROBERT F President, Pratt & Whitney Sep 09, 2019 Option Exercise $134.82 15,233 2,053,713 70,770 Sep 10, 2019, 04:27 PM
LEDUC ROBERT F President, Pratt & Whitney Sep 09, 2019 Option Exercise $78.99 26,000 2,053,740 91,028 Sep 10, 2019, 04:27 PM
LEDUC ROBERT F President, Pratt & Whitney Sep 09, 2019 Sale $134.06 5,025 673,652 86,003 Sep 10, 2019, 04:27 PM
Gill Charles D Executive VP & General Counsel Sep 04, 2019 Option Exercise $131.46 39,958 5,252,752 63,696 Sep 06, 2019, 04:30 PM
Gill Charles D Executive VP & General Counsel Sep 04, 2019 Option Exercise $78.99 66,500 5,252,835 103,458 Sep 06, 2019, 04:30 PM
Gill Charles D Executive VP & General Counsel Sep 04, 2019 Sale $131.42 26,542 3,488,239 94,679 Sep 06, 2019, 04:30 PM
Dumais Michael R EVP, Operations & Strategy Aug 09, 2019 Option Exercise $130.95 5,763 754,665 29,173 Aug 13, 2019, 04:31 PM
Dumais Michael R EVP, Operations & Strategy Aug 09, 2019 Option Exercise $74.79 10,092 754,781 39,265 Aug 13, 2019, 04:31 PM
Dumais Michael R EVP, Operations & Strategy Aug 09, 2019 Sale $130.98 4,329 567,015 34,936 Aug 13, 2019, 04:31 PM
Amato Elizabeth B EVP & Chief HR Officer Jul 29, 2019 Option Exercise $135.72 4,802 651,727 21,747 Jul 30, 2019, 04:31 PM
Amato Elizabeth B EVP & Chief HR Officer Jul 29, 2019 Option Exercise $71.63 9,100 651,833 30,847 Jul 30, 2019, 04:31 PM
Amato Elizabeth B EVP & Chief HR Officer Jul 29, 2019 Sale $135.71 4,298 583,292 26,549 Jul 30, 2019, 04:31 PM
Dumais Michael R EVP, Operations & Strategy May 01, 2019 Option Exercise $141.58 2,046 289,673 29,173 May 03, 2019, 04:23 PM
Bailey Robert J. Corporate VP, Controller Mar 15, 2019 Sale $126.20 1,418 178,952 0 Mar 18, 2019, 04:31 PM
Ortberg Robert Kelly CEO, Collins Aerospace Systems Feb 28, 2019 Sale $126.59 16,587 2,099,788 70,211 Mar 01, 2019, 04:32 PM
JOHRI AKHIL Executive VP and CFO Feb 20, 2019 Option Exercise $128.52 4,040 519,221 55,665 Feb 22, 2019, 04:46 PM
JOHRI AKHIL Executive VP and CFO Feb 20, 2019 Option Exercise $71.63 7,250 519,317 62,915 Feb 22, 2019, 04:46 PM
JOHRI AKHIL Executive VP and CFO Feb 20, 2019 Sale $128.49 3,210 412,467 59,705 Feb 22, 2019, 04:46 PM
Gitlin David L. Pres & COO, Collins Aerospace Feb 20, 2019 Sale $128.26 7,200 923,489 12,893 Feb 22, 2019, 04:33 PM
Dumais Michael R EVP, Operations & Strategy Feb 15, 2019 Option Exercise $126.69 9,134 1,157,186 26,819 Feb 19, 2019, 04:32 PM
Dumais Michael R EVP, Operations & Strategy Feb 15, 2019 Option Exercise $74.66 15,500 1,157,230 42,319 Feb 19, 2019, 04:32 PM
Dumais Michael R EVP, Operations & Strategy Feb 15, 2019 Sale $126.75 6,366 806,885 35,953 Feb 19, 2019, 04:32 PM
Amato Elizabeth B EVP & Chief HR Officer Feb 14, 2019 Sale $123.84 10,089 1,249,435 21,635 Feb 15, 2019, 04:32 PM
JOHRI AKHIL Executive VP and CFO Feb 11, 2019 Option Exercise $122.72 19,952 2,448,509 56,135 Feb 13, 2019, 04:58 PM
JOHRI AKHIL Executive VP and CFO Feb 11, 2019 Option Exercise $122.72 470 57,678 55,665 Feb 13, 2019, 04:58 PM
HAYES GREGORY Chairman, President and CEO Feb 11, 2019 Option Exercise $122.72 61,480 7,544,826 170,446 Feb 13, 2019, 04:35 PM
HAYES GREGORY Chairman, President and CEO Feb 12, 2019 Option Exercise $123.06 50,058 6,160,137 143,111 Feb 13, 2019, 04:35 PM
HAYES GREGORY Chairman, President and CEO Feb 11, 2019 Option Exercise $122.72 27,335 3,354,551 143,111 Feb 13, 2019, 04:35 PM
HAYES GREGORY Chairman, President and CEO Feb 12, 2019 Option Exercise $71.63 86,000 6,160,180 229,111 Feb 13, 2019, 04:35 PM
HAYES GREGORY Chairman, President and CEO Feb 12, 2019 Sale $123.81 35,942 4,450,091 193,169 Feb 13, 2019, 04:35 PM
Gill Charles D Executive VP & General Counsel Feb 11, 2019 Option Exercise $122.72 19,952 2,448,509 45,003 Feb 13, 2019, 04:34 PM
Gill Charles D Executive VP & General Counsel Feb 12, 2019 Option Exercise $123.72 17,658 2,184,648 36,958 Feb 13, 2019, 04:34 PM
Gill Charles D Executive VP & General Counsel Feb 11, 2019 Option Exercise $122.72 8,045 987,282 36,958 Feb 13, 2019, 04:34 PM
Gill Charles D Executive VP & General Counsel Feb 12, 2019 Option Exercise $71.63 30,500 2,184,715 67,458 Feb 13, 2019, 04:34 PM
Gill Charles D Executive VP & General Counsel Feb 12, 2019 Sale $123.67 12,842 1,588,141 54,616 Feb 13, 2019, 04:34 PM
Amato Elizabeth B EVP & Chief HR Officer Feb 11, 2019 Option Exercise $122.72 16,588 2,035,679 38,223 Feb 13, 2019, 04:34 PM
Amato Elizabeth B EVP & Chief HR Officer Feb 11, 2019 Option Exercise $122.72 6,499 797,557 31,724 Feb 13, 2019, 04:34 PM
Bailey Robert J. Corporate VP, Controller Feb 11, 2019 Option Exercise $122.72 2,112 259,185 2,112 Feb 13, 2019, 04:34 PM
Bailey Robert J. Corporate VP, Controller Feb 11, 2019 Option Exercise $122.72 694 85,168 1,418 Feb 13, 2019, 04:34 PM
Dumais Michael R EVP, Operations & Strategy Feb 11, 2019 Option Exercise $122.72 18,328 2,249,212 34,927 Feb 13, 2019, 04:33 PM
Dumais Michael R EVP, Operations & Strategy Feb 11, 2019 Option Exercise $122.72 8,108 995,014 26,819 Feb 13, 2019, 04:33 PM
Gitlin David L. Pres & COO, Collins Aerospace Feb 11, 2019 Option Exercise $122.72 18,328 2,249,212 18,328 Feb 13, 2019, 04:33 PM
Gitlin David L. Pres & COO, Collins Aerospace Feb 11, 2019 Option Exercise $122.72 6,977 856,217 11,351 Feb 13, 2019, 04:33 PM
LEDUC ROBERT F President, Pratt & Whitney Feb 11, 2019 Option Exercise $122.72 20,416 2,505,452 73,306 Feb 13, 2019, 04:33 PM
LEDUC ROBERT F President, Pratt & Whitney Feb 11, 2019 Option Exercise $122.72 8,278 1,015,876 65,028 Feb 13, 2019, 04:33 PM
MCDONOUGH ROBERT J President, Carrier Feb 11, 2019 Option Exercise $122.72 22,203 2,724,752 32,704 Feb 13, 2019, 04:33 PM
MCDONOUGH ROBERT J President, Carrier Feb 11, 2019 Option Exercise $122.72 7,520 922,854 25,184 Feb 13, 2019, 04:33 PM
Whitehouse David R Corp VP, Treasurer Feb 11, 2019 Option Exercise $122.72 1,833 224,946 7,899 Feb 13, 2019, 04:33 PM
Whitehouse David R Corp VP, Treasurer Feb 11, 2019 Option Exercise $122.72 574 70,441 7,325 Feb 13, 2019, 04:33 PM
Bailey Robert J. Corporate VP, Controller Feb 06, 2019 Sale $121.71 862 104,916 0 Feb 07, 2019, 04:34 PM
Dumais Michael R EVP, Operations & Strategy Jan 30, 2019 Option Exercise $119.03 9,408 1,119,834 16,599 Jan 31, 2019, 04:33 PM
Dumais Michael R EVP, Operations & Strategy Jan 30, 2019 Option Exercise $74.66 15,000 1,119,900 35,627 Jan 31, 2019, 04:33 PM
Dumais Michael R EVP, Operations & Strategy Jan 30, 2019 Sale $119.12 9,620 1,145,903 31,599 Jan 31, 2019, 04:33 PM
Ortberg Robert Kelly CEO, Collins Aerospace Systems Nov 26, 2018 Option Exercise $127.98 30,599 3,916,060 112,635 Jan 28, 2019, 04:56 PM
Bailey Robert J. Corporate VP, Controller Jan 04, 2019 Option Exercise $107.02 353 37,778 862 Jan 08, 2019, 04:32 PM
Whitehouse David R Corp VP, Treasurer Jan 04, 2019 Option Exercise $107.02 388 41,524 6,066 Jan 08, 2019, 04:32 PM
Bailey Robert J. Corporate VP, Controller Jul 31, 2018 Option Exercise $134.70 1,172 157,868 0 Aug 02, 2018, 04:32 PM
Bailey Robert J. Corporate VP, Controller Jul 31, 2018 Option Exercise $78.99 2,000 157,980 2,000 Aug 02, 2018, 04:32 PM
Bailey Robert J. Corporate VP, Controller Jul 31, 2018 Sale $134.75 828 111,575 1,172 Aug 02, 2018, 04:32 PM
JOHRI AKHIL Executive VP and CFO Jul 26, 2018 Option Exercise $135.87 3,822 519,295 36,153 Jul 27, 2018, 04:33 PM
JOHRI AKHIL Executive VP and CFO Jul 26, 2018 Option Exercise $71.63 7,250 519,317 43,403 Jul 27, 2018, 04:33 PM
JOHRI AKHIL Executive VP and CFO Jul 26, 2018 Sale $135.82 3,428 465,591 39,975 Jul 27, 2018, 04:33 PM
Gill Charles D Executive VP & General Counsel Jul 26, 2018 Option Exercise $136.48 15,745 2,148,878 25,029 Jul 27, 2018, 04:33 PM
Gill Charles D Executive VP & General Counsel Jul 26, 2018 Option Exercise $71.63 30,000 2,148,900 55,029 Jul 27, 2018, 04:33 PM
Gill Charles D Executive VP & General Counsel Jul 26, 2018 Sale $136.43 14,255 1,944,781 40,774 Jul 27, 2018, 04:33 PM
JOHRI AKHIL Executive VP and CFO May 22, 2018 Option Exercise $128.26 4,691 601,668 42,397 May 24, 2018, 04:33 PM
JOHRI AKHIL Executive VP and CFO May 22, 2018 Option Exercise $54.95 10,950 601,703 47,088 May 24, 2018, 04:33 PM
JOHRI AKHIL Executive VP and CFO May 22, 2018 Sale $128.30 6,259 803,036 36,138 May 24, 2018, 04:33 PM
Gill Charles D Executive VP & General Counsel May 22, 2018 Sale $128.48 9,700 1,246,208 25,029 May 24, 2018, 04:32 PM
MCDONOUGH ROBERT J President, UTC CCS May 02, 2018 Option Exercise $119.06 9,230 1,098,924 31,382 May 04, 2018, 04:29 PM
MCDONOUGH ROBERT J President, UTC CCS May 02, 2018 Option Exercise $54.95 20,000 1,099,000 40,612 May 04, 2018, 04:29 PM
MCDONOUGH ROBERT J President, UTC CCS May 02, 2018 Sale $119.09 10,770 1,282,599 20,612 May 04, 2018, 04:29 PM
Reynolds Fredric G Director Apr 27, 2018 Buy $121.58 9,000 1,094,247 22,225 May 01, 2018, 05:09 PM
Amato Elizabeth B EVP & Chief HR Officer Apr 26, 2018 Option Exercise $123.82 3,417 423,093 25,756 Apr 27, 2018, 04:34 PM
Amato Elizabeth B EVP & Chief HR Officer Apr 26, 2018 Option Exercise $54.95 7,700 423,115 31,447 Apr 27, 2018, 04:34 PM
Amato Elizabeth B EVP & Chief HR Officer Apr 26, 2018 Sale $123.86 6,557 812,154 29,173 Apr 27, 2018, 04:34 PM
LEDUC ROBERT F President, Pratt & Whitney Apr 02, 2018 Option Exercise $123.48 1,462 180,528 52,778 Apr 04, 2018, 04:32 PM
Bailey Robert J. Corporate VP, Controller Feb 26, 2018 Option Exercise $134.93 2,868 386,979 0 Feb 28, 2018, 04:32 PM
Bailey Robert J. Corporate VP, Controller Feb 26, 2018 Option Exercise $78.99 4,900 387,051 4,900 Feb 28, 2018, 04:32 PM
Bailey Robert J. Corporate VP, Controller Feb 26, 2018 Sale $134.95 2,032 274,216 2,868 Feb 28, 2018, 04:32 PM
Bailey Robert J. Corporate VP, Controller Feb 22, 2018 Sale $133.73 419 56,034 0 Feb 23, 2018, 04:32 PM
JOHRI AKHIL Executive VP and CFO Feb 12, 2018 Option Exercise $127.38 2,716 345,964 36,140 Feb 14, 2018, 05:25 PM
JOHRI AKHIL Executive VP and CFO Feb 12, 2018 Option Exercise $127.38 64 8,152 36,076 Feb 14, 2018, 05:25 PM
MCDONOUGH ROBERT J President, UTC CCS Feb 12, 2018 Option Exercise $127.38 3,388 431,563 21,439 Feb 14, 2018, 05:13 PM
MCDONOUGH ROBERT J President, UTC CCS Feb 12, 2018 Option Exercise $127.38 827 105,343 20,612 Feb 14, 2018, 05:13 PM
HAYES GREGORY Chairman, President and CEO Feb 12, 2018 Option Exercise $127.38 11,060 1,408,823 112,929 Feb 14, 2018, 05:02 PM
HAYES GREGORY Chairman, President and CEO Feb 12, 2018 Option Exercise $127.38 3,963 504,807 108,966 Feb 14, 2018, 05:02 PM
Dumais Michael R EVP, Operations & Strategy Feb 12, 2018 Option Exercise $127.38 2,464 313,864 21,412 Feb 14, 2018, 04:58 PM
Dumais Michael R EVP, Operations & Strategy Feb 12, 2018 Option Exercise $127.38 785 99,993 20,627 Feb 14, 2018, 04:58 PM
Whitehouse David R Corp VP, Treasurer Feb 12, 2018 Option Exercise $127.38 286 36,431 5,489 Feb 14, 2018, 04:56 PM
Whitehouse David R Corp VP, Treasurer Feb 12, 2018 Option Exercise $127.38 90 11,464 5,399 Feb 14, 2018, 04:56 PM
Bailey Robert J. Corporate VP, Controller Feb 12, 2018 Option Exercise $127.38 658 83,816 658 Feb 14, 2018, 04:55 PM
Bailey Robert J. Corporate VP, Controller Feb 12, 2018 Option Exercise $127.38 239 30,444 419 Feb 14, 2018, 04:55 PM
Gill Charles D Executive VP & General Counsel Feb 12, 2018 Option Exercise $127.38 4,312 549,263 36,090 Feb 14, 2018, 04:50 PM
Gill Charles D Executive VP & General Counsel Feb 12, 2018 Option Exercise $127.38 1,361 173,364 34,729 Feb 14, 2018, 04:50 PM
Gitlin David L. Pres., UTC Aerospace Systems Feb 12, 2018 Option Exercise $127.38 3,080 392,330 3,080 Feb 14, 2018, 04:50 PM
Gitlin David L. Pres., UTC Aerospace Systems Feb 12, 2018 Option Exercise $127.38 924 117,699 2,156 Feb 14, 2018, 04:50 PM
Amato Elizabeth B EVP & Chief HR Officer Feb 12, 2018 Option Exercise $127.38 3,332 424,430 24,754 Feb 14, 2018, 04:48 PM
Amato Elizabeth B EVP & Chief HR Officer Feb 12, 2018 Option Exercise $127.38 1,058 134,768 23,696 Feb 14, 2018, 04:48 PM
Whitehouse David R Corp VP, Treasurer Jan 02, 2018 Option Exercise $128.16 797 102,144 5,203 Jan 04, 2018, 04:32 PM
JOHRI AKHIL Executive VP and CFO Jan 02, 2018 Option Exercise $128.16 18,211 2,333,922 33,424 Jan 04, 2018, 04:31 PM
Bailey Robert J. Corporate VP, Controller Dec 15, 2017 Option Exercise $126.01 1,136 143,147 0 Dec 18, 2017, 04:33 PM
Bailey Robert J. Corporate VP, Controller Dec 15, 2017 Option Exercise $71.63 2,000 143,260 2,000 Dec 18, 2017, 04:33 PM
Bailey Robert J. Corporate VP, Controller Dec 15, 2017 Sale $126.01 864 108,873 1,136 Dec 18, 2017, 04:33 PM
Amato Elizabeth B EVP & Chief HR Officer Dec 15, 2017 Option Exercise $125.95 3,359 423,066 25,763 Dec 18, 2017, 04:33 PM
Amato Elizabeth B EVP & Chief HR Officer Dec 15, 2017 Option Exercise $54.95 7,700 423,115 29,122 Dec 18, 2017, 04:33 PM
Amato Elizabeth B EVP & Chief HR Officer Dec 15, 2017 Sale $125.92 4,341 546,601 21,422 Dec 18, 2017, 04:33 PM
Bailey Robert J. Corporate VP, Controller Dec 13, 2017 Option Exercise $124.35 864 107,438 0 Dec 15, 2017, 04:35 PM
Bailey Robert J. Corporate VP, Controller Dec 13, 2017 Option Exercise $71.63 1,500 107,445 1,500 Dec 15, 2017, 04:35 PM
Bailey Robert J. Corporate VP, Controller Dec 13, 2017 Sale $124.35 636 79,088 864 Dec 15, 2017, 04:35 PM
Bailey Robert J. Corporate VP, Controller Dec 07, 2017 Option Exercise $122.67 1,167 143,156 0 Dec 11, 2017, 04:34 PM
Bailey Robert J. Corporate VP, Controller Dec 07, 2017 Option Exercise $71.63 2,000 143,260 2,000 Dec 11, 2017, 04:34 PM
Bailey Robert J. Corporate VP, Controller Dec 07, 2017 Sale $122.66 833 102,176 1,167 Dec 11, 2017, 04:34 PM
JOHRI AKHIL Executive VP and CFO Dec 01, 2017 Option Exercise $121.03 4,971 601,640 18,324 Dec 04, 2017, 04:35 PM
JOHRI AKHIL Executive VP and CFO Dec 01, 2017 Option Exercise $54.95 10,950 601,703 23,295 Dec 04, 2017, 04:35 PM
JOHRI AKHIL Executive VP and CFO Dec 01, 2017 Sale $121.03 5,979 723,638 12,345 Dec 04, 2017, 04:35 PM
Bailey Robert J. Corporate VP, Controller Nov 29, 2017 Option Exercise $118.08 1,273 150,316 0 Dec 01, 2017, 04:34 PM
Bailey Robert J. Corporate VP, Controller Nov 29, 2017 Option Exercise $71.63 2,100 150,423 2,100 Dec 01, 2017, 04:34 PM
Bailey Robert J. Corporate VP, Controller Nov 29, 2017 Sale $118.06 827 97,636 1,273 Dec 01, 2017, 04:34 PM
Dumais Michael R EVP, Operations & Strategy Nov 03, 2017 Option Exercise $121.00 5,614 679,294 18,948 Nov 07, 2017, 04:33 PM
Dumais Michael R EVP, Operations & Strategy Nov 03, 2017 Option Exercise $78.99 8,600 679,314 27,548 Nov 07, 2017, 04:33 PM
Dumais Michael R EVP, Operations & Strategy Nov 03, 2017 Sale $120.98 2,986 361,249 24,562 Nov 07, 2017, 04:33 PM
DELPECH PHILIPPE President, Otis Elevator Jul 01, 2017 Option Exercise $122.08 1,060 129,405 48,635 Jul 06, 2017, 04:33 PM
Bailey Robert J. Corporate VP, Controller May 03, 2017 Option Exercise $119.56 2,298 274,749 2,702 May 04, 2017, 04:33 PM
Bailey Robert J. Corporate VP, Controller May 03, 2017 Option Exercise $54.95 5,000 274,750 5,000 May 04, 2017, 04:33 PM
Bailey Robert J. Corporate VP, Controller May 03, 2017 Sale $119.53 2,702 322,970 0 May 04, 2017, 04:33 PM
DELPECH PHILIPPE President, Otis Elevator May 03, 2017 Option Exercise $120.31 17,804 2,141,999 38,121 May 04, 2017, 04:32 PM
DELPECH PHILIPPE President, Otis Elevator May 03, 2017 Option Exercise $84.00 25,500 2,142,000 63,621 May 04, 2017, 04:32 PM
DELPECH PHILIPPE President, Otis Elevator May 03, 2017 Sale $120.32 7,696 925,990 55,925 May 04, 2017, 04:32 PM
MCDONOUGH ROBERT J President, UTC CCS May 01, 2017 Option Exercise $118.92 5,062 601,973 18,051 May 03, 2017, 04:43 PM
Gill Charles D Executive VP & General Counsel Feb 17, 2017 Option Exercise $112.08 36,525 4,093,722 69,753 Feb 21, 2017, 04:36 PM
Gill Charles D Executive VP & General Counsel Feb 17, 2017 Option Exercise $54.95 74,500 4,093,775 106,278 Feb 21, 2017, 04:36 PM
Gill Charles D Executive VP & General Counsel Feb 17, 2017 Sale $112.01 37,975 4,253,770 31,778 Feb 21, 2017, 04:36 PM
Dumais Michael R EVP, Operations & Strategy Feb 16, 2017 Option Exercise $112.10 6,059 679,214 18,948 Feb 17, 2017, 04:35 PM
Dumais Michael R EVP, Operations & Strategy Feb 16, 2017 Option Exercise $78.99 8,600 679,314 27,548 Feb 17, 2017, 04:35 PM
Dumais Michael R EVP, Operations & Strategy Feb 16, 2017 Sale $112.12 2,541 284,907 25,007 Feb 17, 2017, 04:35 PM
Amato Elizabeth B EVP & Chief HR Officer Feb 16, 2017 Option Exercise $112.02 6,109 684,330 21,328 Feb 17, 2017, 04:34 PM
Amato Elizabeth B EVP & Chief HR Officer Feb 16, 2017 Option Exercise $75.21 9,100 684,411 30,428 Feb 17, 2017, 04:34 PM
Amato Elizabeth B EVP & Chief HR Officer Feb 16, 2017 Sale $112.02 2,991 335,058 27,437 Feb 17, 2017, 04:34 PM
Gitlin David L. Pres., UTC Aerospace Systems Feb 13, 2017 Option Exercise $111.64 19,332 2,158,224 0 Feb 15, 2017, 04:34 PM
Gitlin David L. Pres., UTC Aerospace Systems Feb 13, 2017 Option Exercise $76.27 28,300 2,158,343 28,300 Feb 15, 2017, 04:34 PM
Gitlin David L. Pres., UTC Aerospace Systems Feb 13, 2017 Sale $111.67 8,968 1,001,412 19,332 Feb 15, 2017, 04:34 PM
HAYES GREGORY Chairman, President and CEO Feb 08, 2017 Option Exercise $110.63 37,050 4,098,803 146,513 Feb 10, 2017, 04:36 PM
HAYES GREGORY Chairman, President and CEO Feb 08, 2017 Option Exercise $75.21 54,500 4,098,945 156,369 Feb 10, 2017, 04:36 PM
HAYES GREGORY Chairman, President and CEO Feb 08, 2017 Sale $110.64 17,450 1,930,616 101,869 Feb 10, 2017, 04:36 PM
Gill Charles D Executive VP & General Counsel Feb 06, 2017 Option Exercise $111.14 28,671 3,186,399 67,222 Feb 08, 2017, 04:42 PM
Gill Charles D Executive VP & General Counsel Feb 06, 2017 Option Exercise $70.81 45,000 3,186,450 76,778 Feb 08, 2017, 04:42 PM
Gill Charles D Executive VP & General Counsel Feb 06, 2017 Sale $111.10 16,329 1,814,168 50,893 Feb 08, 2017, 04:42 PM
JOHRI AKHIL Executive VP and CFO Feb 07, 2017 Option Exercise $111.39 4,591 511,391 12,300 Feb 08, 2017, 04:40 PM
JOHRI AKHIL Executive VP and CFO Feb 07, 2017 Option Exercise $75.21 6,800 511,428 19,100 Feb 08, 2017, 04:40 PM
JOHRI AKHIL Executive VP and CFO Feb 07, 2017 Sale $111.41 2,209 246,111 16,891 Feb 08, 2017, 04:40 PM
MCDONOUGH ROBERT J President, UTC CCS Feb 07, 2017 Sale $111.32 300 33,396 11,049 Feb 08, 2017, 04:40 PM
ROGERS BRIAN C Director Dec 07, 2016 Buy $107.94 5,000 539,685 5,000 Dec 09, 2016, 05:02 PM
Gill Charles D Executive VP & General Counsel Dec 07, 2016 Option Exercise $109.11 29,204 3,186,448 31,778 Dec 09, 2016, 05:02 PM
Gill Charles D Executive VP & General Counsel Dec 07, 2016 Option Exercise $70.81 45,000 3,186,450 76,778 Dec 09, 2016, 05:02 PM
Gill Charles D Executive VP & General Counsel Dec 07, 2016 Sale $108.98 15,796 1,721,416 60,982 Dec 09, 2016, 05:02 PM
JOHRI AKHIL Executive VP and CFO Nov 29, 2016 Option Exercise $109.02 4,691 511,413 12,300 Dec 01, 2016, 05:02 PM
JOHRI AKHIL Executive VP and CFO Nov 29, 2016 Option Exercise $75.21 6,800 511,428 19,100 Dec 01, 2016, 05:02 PM
JOHRI AKHIL Executive VP and CFO Nov 29, 2016 Sale $109.02 2,109 229,923 16,991 Dec 01, 2016, 05:02 PM
HAYES GREGORY Chairman, President and CEO Nov 14, 2016 Option Exercise $108.91 66,208 7,211,006 176,129 Nov 16, 2016, 05:03 PM
HAYES GREGORY Chairman, President and CEO Nov 14, 2016 Option Exercise $70.81 90,000 6,372,900 183,825 Nov 16, 2016, 05:03 PM
HAYES GREGORY Chairman, President and CEO Nov 14, 2016 Sale $108.89 15,748 1,714,863 160,381 Nov 16, 2016, 05:03 PM
Bailey Robert J. Corporate VP, Controller Nov 10, 2016 Option Exercise $106.36 1,033 109,870 0 Nov 14, 2016, 05:33 PM
Bailey Robert J. Corporate VP, Controller Nov 10, 2016 Option Exercise $54.95 2,000 109,900 2,000 Nov 14, 2016, 05:33 PM
Bailey Robert J. Corporate VP, Controller Nov 10, 2016 Sale $106.46 967 102,947 1,033 Nov 14, 2016, 05:33 PM
Mitchill Neil G. JR Corp VP, Controller Sep 02, 2016 Option Exercise $106.93 495 52,930 946 Sep 07, 2016, 05:04 PM
FARACI JOHN V Director Jun 03, 2015 Buy $118.65 860 102,043 860 Sep 02, 2016, 05:04 PM
FARACI JOHN V Director Aug 04, 2015 Buy $99.59 239 23,802 1,179 Sep 02, 2016, 05:04 PM
FARACI JOHN V Director Jul 10, 2015 Buy $109.92 80 8,793 940 Sep 02, 2016, 05:04 PM
FARACI JOHN V Director Feb 10, 2016 Sale $87.96 1,153 101,421 0 Sep 02, 2016, 05:04 PM
FARACI JOHN V Director Oct 02, 2015 Sale $87.14 42 3,660 1,145 Sep 02, 2016, 05:04 PM
Gill Charles D Executive VP & General Counsel Aug 11, 2016 Option Exercise $109.01 13,798 1,504,120 31,778 Aug 12, 2016, 05:03 PM
Gill Charles D Executive VP & General Counsel Aug 11, 2016 Option Exercise $75.21 20,000 1,504,200 51,778 Aug 12, 2016, 05:03 PM
Gill Charles D Executive VP & General Counsel Aug 11, 2016 Sale $109.00 6,202 676,030 45,576 Aug 12, 2016, 05:03 PM
Dumais Michael R SVP, Strategic Planning Aug 05, 2016 Option Exercise $107.04 4,751 508,547 18,948 Aug 09, 2016, 05:02 PM
Dumais Michael R SVP, Strategic Planning Aug 05, 2016 Option Exercise $71.63 7,100 508,573 26,048 Aug 09, 2016, 05:02 PM
Dumais Michael R SVP, Strategic Planning Aug 05, 2016 Sale $107.05 2,349 251,460 23,699 Aug 09, 2016, 05:02 PM
DELPECH PHILIPPE President, Otis Elevator Jul 28, 2016 Option Exercise $75.22 40,800 3,068,784 78,921 Aug 01, 2016, 05:04 PM
DELPECH PHILIPPE President, Otis Elevator Jul 28, 2016 Sale $107.72 40,800 4,395,058 38,121 Aug 01, 2016, 05:04 PM
MCDONOUGH ROBERT J President, UTC CCS Jul 28, 2016 Sale $107.11 3,100 332,032 11,349 Jul 29, 2016, 05:04 PM
Gill Charles D Executive VP & General Counsel Jul 27, 2016 Option Exercise $108.06 16,356 1,767,429 31,778 Jul 29, 2016, 05:03 PM
Gill Charles D Executive VP & General Counsel Jul 27, 2016 Option Exercise $75.21 23,500 1,767,435 55,278 Jul 29, 2016, 05:03 PM
Gill Charles D Executive VP & General Counsel Jul 27, 2016 Sale $108.05 7,144 771,909 48,134 Jul 29, 2016, 05:03 PM
Whitehouse David R Corp VP, Treasurer Jun 10, 2016 Option Exercise $100.35 4 401 3,207 Jun 14, 2016, 05:03 PM
Gill Charles D Executive VP & General Counsel Jun 08, 2016 Option Exercise $102.04 14,342 1,463,458 31,778 Jun 10, 2016, 05:03 PM
Gill Charles D Executive VP & General Counsel Jun 08, 2016 Option Exercise $62.81 23,300 1,463,473 55,078 Jun 10, 2016, 05:03 PM
Gill Charles D Executive VP & General Counsel Jun 08, 2016 Sale $102.04 8,958 914,101 46,120 Jun 10, 2016, 05:03 PM
Whitehouse David R Corp VP, Treasurer Jun 01, 2016 Option Exercise $100.35 577 57,902 3,200 Jun 03, 2016, 05:03 PM
HAYES GREGORY President and CEO May 12, 2016 Option Exercise $102.11 44,593 4,553,496 127,964 May 13, 2016, 05:12 PM
HAYES GREGORY President and CEO May 12, 2016 Option Exercise $62.81 55,500 3,485,955 139,398 May 13, 2016, 05:12 PM
HAYES GREGORY President and CEO May 12, 2016 Sale $102.15 980 100,107 138,418 May 13, 2016, 05:12 PM
Amato Elizabeth B EVP & Chief HR Officer May 10, 2016 Option Exercise $102.12 5,904 602,916 21,156 May 12, 2016, 05:03 PM
Amato Elizabeth B EVP & Chief HR Officer May 10, 2016 Option Exercise $62.81 9,600 602,976 30,756 May 12, 2016, 05:03 PM
Amato Elizabeth B EVP & Chief HR Officer May 10, 2016 Sale $102.12 3,696 377,447 27,060 May 12, 2016, 05:03 PM
Gitlin David L. Pres., UTC Aerospace Systems Apr 28, 2016 Option Exercise $104.55 12,059 1,260,768 6,586 Apr 29, 2016, 05:03 PM
Gitlin David L. Pres., UTC Aerospace Systems Apr 28, 2016 Option Exercise $65.84 19,150 1,260,930 25,736 Apr 29, 2016, 05:03 PM
Gitlin David L. Pres., UTC Aerospace Systems Apr 28, 2016 Sale $104.22 7,091 739,024 18,645 Apr 29, 2016, 05:03 PM
Whitehouse David R Corp VP, Treasurer Feb 10, 2016 Option Exercise $86.96 295 25,653 2,198 Feb 12, 2016, 05:06 PM
Whitehouse David R Corp VP, Treasurer Feb 10, 2016 Option Exercise $86.96 101 8,783 2,097 Feb 12, 2016, 05:06 PM
Gitlin David L. Pres., UTC Aerospace Systems Feb 10, 2016 Option Exercise $86.96 2,033 176,790 7,279 Feb 12, 2016, 05:06 PM
Gitlin David L. Pres., UTC Aerospace Systems Feb 10, 2016 Option Exercise $86.96 693 60,263 6,586 Feb 12, 2016, 05:06 PM
LEDUC ROBERT F President, Pratt & Whitney Feb 10, 2016 Option Exercise $86.96 2,464 214,269 50,463 Feb 12, 2016, 05:05 PM
LEDUC ROBERT F President, Pratt & Whitney Feb 10, 2016 Option Exercise $86.96 871 75,742 49,592 Feb 12, 2016, 05:05 PM
DELPECH PHILIPPE President, Otis Elevator Feb 10, 2016 Option Exercise $86.96 2,728 237,227 38,121 Feb 12, 2016, 05:05 PM
Amato Elizabeth B EVP & Chief HR Officer Feb 10, 2016 Option Exercise $86.96 3,384 294,273 22,276 Feb 12, 2016, 05:04 PM
Amato Elizabeth B EVP & Chief HR Officer Feb 10, 2016 Option Exercise $86.96 1,181 102,700 21,095 Feb 12, 2016, 05:04 PM
MCDONOUGH ROBERT J President, UTC CCS Feb 10, 2016 Option Exercise $86.96 4,092 355,840 15,576 Feb 12, 2016, 05:04 PM
MCDONOUGH ROBERT J President, UTC CCS Feb 10, 2016 Option Exercise $86.96 1,127 98,004 14,449 Feb 12, 2016, 05:04 PM
Dumais Michael R SVP, Strategic Planning Feb 10, 2016 Option Exercise $86.96 4,356 378,798 20,466 Feb 12, 2016, 05:03 PM
Dumais Michael R SVP, Strategic Planning Feb 10, 2016 Option Exercise $86.96 1,518 132,005 18,948 Feb 12, 2016, 05:03 PM
Gill Charles D Executive VP & General Counsel Feb 10, 2016 Option Exercise $86.96 7,876 684,897 34,490 Feb 12, 2016, 05:03 PM
Gill Charles D Executive VP & General Counsel Feb 10, 2016 Option Exercise $86.96 2,712 235,836 31,778 Feb 12, 2016, 05:03 PM
HAYES GREGORY President and CEO Feb 10, 2016 Option Exercise $86.96 11,528 1,002,475 88,067 Feb 12, 2016, 05:01 PM
HAYES GREGORY President and CEO Feb 10, 2016 Option Exercise $86.96 4,169 362,536 83,898 Feb 12, 2016, 05:01 PM
Reynolds Fredric G Director Feb 02, 2016 Buy $86.20 12,000 1,034,400 13,225 Feb 02, 2016, 05:03 PM
Whitehouse David R Corp VP, Treasurer Jan 04, 2016 Option Exercise $95.57 544 51,990 1,903 Jan 08, 2016, 05:02 PM
Gill Charles D Senior VP and General Counsel Oct 26, 2015 Sale $100.88 4,000 403,508 30,403 Oct 28, 2015, 05:03 PM
SWYGERT H PATRICK Director Oct 26, 2015 Sale $100.20 1,000 100,203 0 Oct 28, 2015, 05:03 PM
Gitlin David L. Pres., UTC Aerospace Systems May 15, 2015 Option Exercise $119.21 3,108 370,505 5,246 May 19, 2015, 05:03 PM
Gitlin David L. Pres., UTC Aerospace Systems May 15, 2015 Option Exercise $62.81 5,900 370,579 11,146 May 19, 2015, 05:03 PM
Gitlin David L. Pres., UTC Aerospace Systems May 15, 2015 Sale $119.24 2,792 332,910 8,354 May 19, 2015, 05:03 PM
WHITMAN CHRISTINE TODD Director Mar 16, 2015 Option Exercise $50.53 6,000 303,150 9,150 Mar 18, 2015, 05:08 PM
WHITMAN CHRISTINE TODD Director Mar 16, 2015 Sale $119.76 3,800 455,092 9,106 Mar 18, 2015, 05:08 PM
ROGAN THOMAS I Vice President, Treasurer Mar 16, 2015 Sale $119.46 5,909 705,883 44,561 Mar 18, 2015, 05:07 PM
MCGRAW HAROLD III Director Mar 16, 2015 Option Exercise $50.53 6,000 303,150 9,605 Mar 18, 2015, 05:07 PM
MCGRAW HAROLD III Director Mar 16, 2015 Sale $119.57 6,000 717,419 9,505 Mar 18, 2015, 05:07 PM
GARNIER JEAN PIERRE Director Mar 16, 2015 Option Exercise $50.53 6,000 303,150 17,710 Mar 18, 2015, 05:07 PM
GARNIER JEAN PIERRE Director Mar 16, 2015 Sale $119.62 6,000 717,726 17,610 Mar 18, 2015, 05:07 PM
Amato Elizabeth B SVP, Human Resources & Org. Mar 16, 2015 Option Exercise $119.55 4,397 525,673 20,936 Mar 18, 2015, 05:07 PM
Amato Elizabeth B SVP, Human Resources & Org. Mar 16, 2015 Option Exercise $56.53 9,300 525,729 28,020 Mar 18, 2015, 05:07 PM
Amato Elizabeth B SVP, Human Resources & Org. Mar 16, 2015 Sale $119.55 4,903 586,158 26,836 Mar 18, 2015, 05:07 PM
Maurer Michael B President, Sikorsky Aircraft Mar 13, 2015 Option Exercise $121.24 8,530 1,034,177 30,653 Mar 17, 2015, 05:20 PM
Maurer Michael B President, Sikorsky Aircraft Mar 13, 2015 Option Exercise $59.79 17,300 1,034,399 34,289 Mar 17, 2015, 05:20 PM
Maurer Michael B President, Sikorsky Aircraft Mar 13, 2015 Sale $120.67 8,770 1,058,276 16,989 Mar 17, 2015, 05:20 PM
DARNIS GERAUD Pres. & CEO, UTC Bldg. & Ind. Mar 13, 2015 Option Exercise $121.03 142,987 17,305,716 397,283 Mar 17, 2015, 05:20 PM
DARNIS GERAUD Pres. & CEO, UTC Bldg. & Ind. Mar 13, 2015 Option Exercise $57.40 301,500 17,305,795 452,691 Mar 17, 2015, 05:20 PM
DARNIS GERAUD Pres. & CEO, UTC Bldg. & Ind. Mar 13, 2015 Sale $121.10 158,513 19,196,322 444,691 Mar 17, 2015, 05:20 PM
ROGAN THOMAS I Vice President, Treasurer Feb 09, 2015 Option Exercise $119.32 148 17,659 50,442 Feb 12, 2015, 05:02 PM
Adams Paul R. President, Pratt & Whitney Feb 09, 2015 Option Exercise $119.32 6,120 730,238 6,142 Feb 11, 2015, 05:12 PM
Adams Paul R. President, Pratt & Whitney Feb 09, 2015 Option Exercise $119.32 2,107 251,407 4,035 Feb 11, 2015, 05:12 PM
Amato Elizabeth B SVP, Human Resources & Org. Feb 09, 2015 Option Exercise $119.32 3,033 361,898 19,723 Feb 11, 2015, 05:12 PM
Amato Elizabeth B SVP, Human Resources & Org. Feb 09, 2015 Option Exercise $119.32 1,051 125,405 18,672 Feb 11, 2015, 05:12 PM
Dumais Michael R SVP, Strategic Planning Feb 09, 2015 Option Exercise $119.32 7,290 869,843 18,619 Feb 11, 2015, 05:12 PM
Dumais Michael R SVP, Strategic Planning Feb 09, 2015 Option Exercise $119.32 2,509 299,374 16,110 Feb 11, 2015, 05:12 PM
Gill Charles D Senior VP and General Counsel Feb 09, 2015 Option Exercise $119.32 18,000 2,147,760 38,171 Feb 11, 2015, 05:12 PM
Gill Charles D Senior VP and General Counsel Feb 09, 2015 Option Exercise $119.32 7,557 901,701 30,614 Feb 11, 2015, 05:12 PM
Gitlin David L. Pres., UTC Aerospace Systems Feb 09, 2015 Option Exercise $119.32 4,239 505,797 6,669 Feb 11, 2015, 05:11 PM
Gitlin David L. Pres., UTC Aerospace Systems Feb 09, 2015 Option Exercise $119.32 1,423 169,792 5,246 Feb 11, 2015, 05:11 PM
HAYES GREGORY President and CEO Feb 09, 2015 Option Exercise $119.32 29,070 3,468,632 89,489 Feb 11, 2015, 05:11 PM
HAYES GREGORY President and CEO Feb 09, 2015 Option Exercise $119.32 12,950 1,545,194 76,539 Feb 11, 2015, 05:11 PM
JOHRI AKHIL SVP and CFO Feb 09, 2015 Option Exercise $119.32 7,290 869,843 15,155 Feb 11, 2015, 05:11 PM
JOHRI AKHIL SVP and CFO Feb 09, 2015 Option Exercise $119.32 2,954 352,471 12,201 Feb 11, 2015, 05:11 PM
Maurer Michael B President, Sikorsky Aircraft Feb 09, 2015 Option Exercise $119.32 3,330 397,336 18,140 Feb 11, 2015, 05:11 PM
Maurer Michael B President, Sikorsky Aircraft Feb 09, 2015 Option Exercise $119.32 1,151 137,337 16,989 Feb 11, 2015, 05:11 PM
DARNIS GERAUD Pres. & CEO, UTC Bldg. & Ind. Feb 09, 2015 Option Exercise $119.32 27,270 3,253,856 175,531 Feb 11, 2015, 05:10 PM
DARNIS GERAUD Pres. & CEO, UTC Bldg. & Ind. Feb 09, 2015 Option Exercise $119.32 636 75,888 174,895 Feb 11, 2015, 05:10 PM
DARNIS GERAUD Pres. & CEO, UTC Bldg. & Ind. Jan 09, 2015 Option Exercise $114.25 5,984 683,702 11,834 Feb 11, 2015, 05:10 PM
DARNIS GERAUD Pres. & CEO, UTC Bldg. & Ind. Jan 09, 2015 Option Exercise $114.25 5,984 683,702 0 Feb 11, 2015, 05:10 PM
ROGAN THOMAS I Vice President, Treasurer Feb 09, 2015 Option Exercise $119.32 5,400 644,328 37,821 Feb 11, 2015, 05:10 PM
ROGAN THOMAS I Vice President, Treasurer Feb 09, 2015 Option Exercise $119.32 148 17,659 37,673 Feb 11, 2015, 05:10 PM
ROGAN THOMAS I Vice President, Treasurer Dec 15, 2014 Option Exercise $112.15 15,391 1,726,101 42,203 Dec 16, 2014, 05:12 PM
ROGAN THOMAS I Vice President, Treasurer Dec 15, 2014 Option Exercise $51.50 21,300 1,096,950 47,812 Dec 16, 2014, 05:12 PM
GORELICK JAMIE S Director Nov 06, 2014 Option Exercise $108.31 2,763 299,247 12,835 Nov 10, 2014, 05:19 PM
GORELICK JAMIE S Director Oct 31, 2014 Option Exercise $51.06 13,400 684,250 23,051 Nov 03, 2014, 05:06 PM
GORELICK JAMIE S Director Oct 31, 2014 Sale $107.35 13,400 1,438,463 17,051 Nov 03, 2014, 05:06 PM
DARNIS GERAUD Pres. & CEO, UTC Bldg. & Ind. Aug 22, 2014 Option Exercise $51.50 50,000 2,575,000 188,243 Aug 26, 2014, 05:13 PM
DARNIS GERAUD Pres. & CEO, UTC Bldg. & Ind. Aug 22, 2014 Sale $109.45 50,000 5,472,300 138,243 Aug 26, 2014, 05:13 PM
Maurer Michael B President, Sikorsky Aircraft Jul 01, 2014 Option Exercise $115.93 1,597 185,140 14,810 Jul 03, 2014, 05:07 PM
Adams Paul R. COO, Pratt & Whitney Jun 10, 2014 Option Exercise $119.05 4,890 582,155 5,432 Jun 11, 2014, 05:05 PM
Adams Paul R. COO, Pratt & Whitney Jun 10, 2014 Option Exercise $56.53 10,300 582,259 14,609 Jun 11, 2014, 05:05 PM
Adams Paul R. COO, Pratt & Whitney Jun 10, 2014 Sale $119.04 9,697 1,154,367 10,322 Jun 11, 2014, 05:05 PM
Amato Elizabeth B SVP, Human Resources & Org. Jun 09, 2014 Option Exercise $51.50 7,150 368,225 23,704 Jun 10, 2014, 05:34 PM
Amato Elizabeth B SVP, Human Resources & Org. Jun 09, 2014 Sale $120.08 7,150 858,586 16,554 Jun 10, 2014, 05:34 PM
CHENEVERT LOUIS Chairman & CEO Jun 09, 2014 Option Exercise $118.90 130,510 15,517,639 699,023 Jun 10, 2014, 05:34 PM
CHENEVERT LOUIS Chairman & CEO Jun 09, 2014 Option Exercise $55.02 180,000 9,904,000 721,164 Jun 10, 2014, 05:34 PM
CHENEVERT LOUIS Chairman & CEO Jun 09, 2014 Sale $119.00 24,979 2,972,476 674,044 Jun 10, 2014, 05:34 PM
MCGRAW HAROLD III Director Mar 10, 2014 Option Exercise $44.08 7,000 308,595 8,000 Mar 11, 2014, 05:39 PM
MCGRAW HAROLD III Director Mar 10, 2014 Sale $117.53 4,395 516,531 3,605 Mar 11, 2014, 05:39 PM
BELLEMARE ALAIN Pres. & CEO, UTC Prop. & Aero. Mar 05, 2014 Sale $117.93 7,000 825,531 36,531 Mar 06, 2014, 05:07 PM
Amato Elizabeth B SVP, Human Resources & Org. Feb 26, 2014 Option Exercise $51.50 7,150 368,225 23,661 Feb 28, 2014, 05:06 PM
Amato Elizabeth B SVP, Human Resources & Org. Feb 26, 2014 Sale $116.32 7,150 831,717 16,511 Feb 28, 2014, 05:06 PM
Adams Paul R. COO, Pratt & Whitney Feb 26, 2014 Option Exercise $51.50 7,300 375,950 11,609 Feb 27, 2014, 05:07 PM
Adams Paul R. COO, Pratt & Whitney Feb 26, 2014 Sale $116.53 7,300 850,647 4,309 Feb 27, 2014, 05:07 PM
HAYES GREGORY SVP and CFO Feb 25, 2014 Option Exercise $51.50 46,000 2,369,000 106,419 Feb 26, 2014, 05:11 PM
HAYES GREGORY SVP and CFO Feb 25, 2014 Sale $116.51 46,000 5,359,368 60,419 Feb 26, 2014, 05:11 PM
Maurer Michael B President, Sikorsky Aircraft Feb 25, 2014 Option Exercise $51.50 11,300 581,950 24,436 Feb 26, 2014, 05:11 PM
Maurer Michael B President, Sikorsky Aircraft Feb 25, 2014 Sale $116.26 11,300 1,313,783 13,136 Feb 26, 2014, 05:11 PM
Gill Charles D Senior VP and General Counsel Feb 24, 2014 Sale $117.08 10,000 1,170,780 20,171 Feb 25, 2014, 05:05 PM
CHENEVERT LOUIS Chairman & CEO Feb 10, 2014 Option Exercise $111.60 123,080 13,735,728 601,191 Feb 12, 2014, 06:00 PM
CHENEVERT LOUIS Chairman & CEO Feb 10, 2014 Option Exercise $111.60 60,027 6,699,013 541,164 Feb 12, 2014, 06:00 PM
Maurer Michael B President, Sikorsky Aircraft Feb 10, 2014 Option Exercise $111.60 4,325 482,670 14,630 Feb 12, 2014, 05:57 PM
Maurer Michael B President, Sikorsky Aircraft Feb 10, 2014 Option Exercise $111.60 1,494 166,730 13,136 Feb 12, 2014, 05:57 PM
DARNIS GERAUD Pres. & CEO, UTC Bldg. & Ind. Feb 10, 2014 Option Exercise $111.60 31,144 3,475,670 145,923 Feb 12, 2014, 05:57 PM
DARNIS GERAUD Pres. & CEO, UTC Bldg. & Ind. Feb 10, 2014 Option Exercise $111.60 7,950 887,220 137,973 Feb 12, 2014, 05:57 PM
HAYES GREGORY SVP and CFO Feb 10, 2014 Option Exercise $111.60 36,312 4,052,419 96,731 Feb 12, 2014, 05:57 PM
HAYES GREGORY SVP and CFO Feb 10, 2014 Option Exercise $111.60 16,386 1,828,678 80,345 Feb 12, 2014, 05:57 PM
HAYES GREGORY SVP and CFO Feb 12, 2014 Sale $112.22 19,926 2,236,155 60,419 Feb 12, 2014, 05:57 PM
BELLEMARE ALAIN Pres. & CEO, UTC Prop. & Aero. Feb 10, 2014 Option Exercise $111.60 26,792 2,989,987 56,605 Feb 12, 2014, 05:57 PM
BELLEMARE ALAIN Pres. & CEO, UTC Prop. & Aero. Feb 10, 2014 Option Exercise $111.60 13,074 1,459,058 43,531 Feb 12, 2014, 05:57 PM
Gill Charles D Senior VP and General Counsel Feb 10, 2014 Option Exercise $111.60 23,392 2,610,547 40,274 Feb 12, 2014, 05:56 PM
Gill Charles D Senior VP and General Counsel Feb 10, 2014 Option Exercise $111.60 10,103 1,127,495 30,171 Feb 12, 2014, 05:56 PM
ROGAN THOMAS I Vice President, Treasurer Feb 10, 2014 Option Exercise $111.60 7,480 834,768 29,087 Feb 12, 2014, 05:56 PM
ROGAN THOMAS I Vice President, Treasurer Feb 10, 2014 Option Exercise $111.60 2,575 287,370 26,512 Feb 12, 2014, 05:56 PM
Amato Elizabeth B SVP, Human Resources & Org. Feb 10, 2014 Option Exercise $111.60 3,414 381,002 17,794 Feb 12, 2014, 05:55 PM
Amato Elizabeth B SVP, Human Resources & Org. Feb 10, 2014 Option Exercise $111.60 1,185 132,246 16,609 Feb 12, 2014, 05:55 PM
Adams Paul R. COO, Pratt & Whitney Feb 10, 2014 Option Exercise $111.60 6,528 728,525 6,550 Feb 12, 2014, 05:54 PM
Adams Paul R. COO, Pratt & Whitney Feb 10, 2014 Option Exercise $111.60 2,241 250,096 4,309 Feb 12, 2014, 05:54 PM
CHENEVERT LOUIS Chairman & CEO Jan 31, 2014 Option Exercise $114.68 49,724 5,702,348 509,996 Feb 03, 2014, 05:06 PM
CHENEVERT LOUIS Chairman & CEO Jan 31, 2014 Option Exercise $51.50 71,000 3,656,500 527,835 Feb 03, 2014, 05:06 PM
ROGAN THOMAS I Vice President, Treasurer Jan 30, 2014 Sale $115.16 5,499 633,243 21,607 Feb 03, 2014, 05:06 PM
WHITMAN CHRISTINE TODD Director Jan 29, 2014 Option Exercise $44.08 7,000 308,595 8,000 Jan 30, 2014, 05:23 PM
WHITMAN CHRISTINE TODD Director Jan 29, 2014 Sale $113.50 4,850 550,456 3,150 Jan 30, 2014, 05:23 PM
BELLEMARE ALAIN Pres. & CEO, UTC Prop. & Aero. Jan 23, 2014 Option Exercise $115.22 20,301 2,339,041 29,813 Jan 27, 2014, 05:18 PM
BELLEMARE ALAIN Pres. & CEO, UTC Prop. & Aero. Jan 23, 2014 Option Exercise $56.53 27,500 1,554,575 57,313 Jan 27, 2014, 05:18 PM
BELLEMARE ALAIN Pres. & CEO, UTC Prop. & Aero. Jan 23, 2014 Sale $115.22 7,199 829,454 50,114 Jan 27, 2014, 05:18 PM
DARNIS GERAUD Pres. & CEO, UTC Bldg. & Ind. Jan 23, 2014 Option Exercise $116.12 34,524 4,008,927 152,431 Jan 27, 2014, 05:18 PM
DARNIS GERAUD Pres. & CEO, UTC Bldg. & Ind. Jan 23, 2014 Option Exercise $51.50 50,000 2,575,000 164,779 Jan 27, 2014, 05:18 PM
DARNIS GERAUD Pres. & CEO, UTC Bldg. & Ind. Jan 23, 2014 Sale $114.77 15,476 1,776,134 136,955 Jan 27, 2014, 05:18 PM
GARNIER JEAN PIERRE Director Nov 25, 2013 Option Exercise $44.08 7,000 308,595 18,710 Nov 26, 2013, 05:17 PM
GARNIER JEAN PIERRE Director Nov 25, 2013 Sale $110.50 7,000 773,514 11,710 Nov 26, 2013, 05:17 PM
GORELICK JAMIE S Director Nov 20, 2013 Option Exercise $44.08 7,000 308,595 14,296 Nov 21, 2013, 05:12 PM
GORELICK JAMIE S Director Nov 20, 2013 Sale $109.27 7,000 764,890 7,296 Nov 21, 2013, 05:12 PM
Adams Paul R. COO, Pratt & Whitney Nov 15, 2013 Option Exercise $51.50 8,000 412,000 8,022 Nov 18, 2013, 05:05 PM
Adams Paul R. COO, Pratt & Whitney Nov 15, 2013 Sale $108.53 8,000 868,232 22 Nov 18, 2013, 05:05 PM
HAYES GREGORY SVP and CFO Sep 16, 2013 Option Exercise $109.57 50,371 5,519,088 116,820 Sep 18, 2013, 05:25 PM
HAYES GREGORY SVP and CFO Sep 16, 2013 Option Exercise $109.52 70,596 7,731,745 0 Sep 18, 2013, 05:25 PM
HAYES GREGORY SVP and CFO Sep 16, 2013 Option Exercise $55.85 126,500 7,065,645 186,919 Sep 18, 2013, 05:25 PM
HAYES GREGORY SVP and CFO Sep 16, 2013 Option Exercise $54.95 140,500 7,720,475 140,500 Sep 18, 2013, 05:25 PM
HAYES GREGORY SVP and CFO Sep 16, 2013 Sale $109.58 76,129 8,342,387 164,389 Sep 18, 2013, 05:25 PM
HAYES GREGORY SVP and CFO Sep 16, 2013 Sale $109.52 69,904 7,655,956 70,596 Sep 18, 2013, 05:25 PM
DARNIS GERAUD Pres. & CEO, UTC Climate, Cont Aug 13, 2013 Option Exercise $51.50 51,000 2,626,500 147,240 Aug 14, 2013, 05:51 PM
DARNIS GERAUD Pres. & CEO, UTC Climate, Cont Aug 13, 2013 Sale $106.84 51,000 5,448,687 96,240 Aug 14, 2013, 05:51 PM
Baranda Riva, Pedro Sainz De President, Otis Elevator Aug 02, 2013 Option Exercise $51.50 9,400 484,100 11,918 Aug 05, 2013, 05:05 PM
Baranda Riva, Pedro Sainz De President, Otis Elevator Aug 02, 2013 Sale $107.00 9,400 1,005,800 2,518 Aug 05, 2013, 05:05 PM
ROGAN THOMAS I Vice President, Treasurer Jul 31, 2013 Option Exercise $105.57 16,144 1,704,322 27,106 Aug 01, 2013, 05:04 PM
ROGAN THOMAS I Vice President, Treasurer Jul 31, 2013 Option Exercise $46.76 22,600 1,056,776 49,706 Aug 01, 2013, 05:04 PM
ROGAN THOMAS I Vice President, Treasurer Jul 31, 2013 Sale $106.16 6,456 685,388 47,706 Aug 01, 2013, 05:04 PM
CHENEVERT LOUIS Chairman & CEO Jul 29, 2013 Option Exercise $104.97 77,022 8,084,999 460,835 Jul 31, 2013, 05:07 PM
CHENEVERT LOUIS Chairman & CEO Jul 29, 2013 Option Exercise $57.84 100,000 5,784,000 547,049 Jul 31, 2013, 05:07 PM
CHENEVERT LOUIS Chairman & CEO Jul 29, 2013 Sale $104.60 9,192 961,483 537,857 Jul 31, 2013, 05:07 PM
BELLEMARE ALAIN Pres. & CEO, UTC Prop. & Aero. Jul 29, 2013 Option Exercise $51.50 32,000 1,648,000 61,813 Jul 31, 2013, 05:07 PM
BELLEMARE ALAIN Pres. & CEO, UTC Prop. & Aero. Jul 29, 2013 Sale $104.70 32,000 3,350,464 29,813 Jul 31, 2013, 05:07 PM
Gill Charles D Senior VP and General Counsel Jul 29, 2013 Option Exercise $105.02 6,244 655,745 16,882 Jul 31, 2013, 05:06 PM
Gill Charles D Senior VP and General Counsel Jul 29, 2013 Option Exercise $56.53 11,600 655,748 28,482 Jul 31, 2013, 05:06 PM
Gill Charles D Senior VP and General Counsel Jul 29, 2013 Sale $105.05 5,356 562,664 23,126 Jul 31, 2013, 05:06 PM
VILLENEUVE ANDRE F H Director Jun 14, 2013 Option Exercise $50.53 6,000 303,150 6,000 Jun 14, 2013, 05:11 PM
VILLENEUVE ANDRE F H Director Jun 14, 2013 Sale $94.23 6,000 565,388 0 Jun 14, 2013, 05:11 PM
ROGAN THOMAS I Vice President, Treasurer May 21, 2013 Sale $97.83 5,908 577,977 32,116 May 22, 2013, 05:03 PM
Amato Elizabeth B SVP, Human Resources & Org. Mar 15, 2013 Option Exercise $46.76 8,400 392,784 22,781 Mar 18, 2013, 05:13 PM
Amato Elizabeth B SVP, Human Resources & Org. Mar 15, 2013 Sale $93.18 8,400 782,712 14,381 Mar 18, 2013, 05:13 PM
Amato Elizabeth B SVP, Human Resources & Org. Feb 11, 2013 Option Exercise $89.61 84 7,527 14,332 Mar 18, 2013, 05:03 PM
LONGO PETER F. Vice President, Controller Mar 12, 2013 Option Exercise $46.76 5,000 233,800 23,861 Mar 13, 2013, 05:21 PM
LONGO PETER F. Vice President, Controller Mar 12, 2013 Sale $93.13 5,000 465,625 18,861 Mar 13, 2013, 05:21 PM
Gill Charles D Senior VP and General Counsel Mar 11, 2013 Option Exercise $51.50 15,500 798,250 32,382 Mar 11, 2013, 05:20 PM
Gill Charles D Senior VP and General Counsel Mar 11, 2013 Sale $92.25 15,500 1,429,875 16,882 Mar 11, 2013, 05:20 PM
CHENEVERT LOUIS Chairman & CEO Mar 11, 2013 Option Exercise $92.07 4,786 440,647 447,049 Mar 11, 2013, 05:20 PM
Gill Charles D Senior VP and General Counsel Mar 05, 2013 Sale $91.21 3,750 342,026 16,882 Mar 05, 2013, 05:10 PM
GARNIER JEAN PIERRE Director Feb 27, 2013 Option Exercise $30.52 8,000 244,200 19,710 Feb 28, 2013, 05:09 PM
GARNIER JEAN PIERRE Director Feb 27, 2013 Sale $90.31 8,000 722,515 11,710 Feb 28, 2013, 05:09 PM
HAYES GREGORY SVP and CFO Feb 28, 2013 Option Exercise $46.76 21,400 1,000,664 81,819 Feb 28, 2013, 05:09 PM
HAYES GREGORY SVP and CFO Feb 28, 2013 Sale $90.83 21,400 1,943,794 60,419 Feb 28, 2013, 05:09 PM
Hess David P President, Pratt & Whitney Feb 20, 2013 Option Exercise $91.02 180,756 16,452,976 196,561 Feb 22, 2013, 05:10 PM
Hess David P President, Pratt & Whitney Feb 20, 2013 Option Exercise $64.04 257,000 16,458,190 319,457 Feb 22, 2013, 05:10 PM
Hess David P President, Pratt & Whitney Feb 20, 2013 Sale $91.01 76,244 6,938,997 306,109 Feb 22, 2013, 05:10 PM
Amato Elizabeth B SVP, Human Resources & Org. Feb 20, 2013 Option Exercise $46.76 8,400 392,784 22,730 Feb 22, 2013, 05:10 PM
Amato Elizabeth B SVP, Human Resources & Org. Feb 20, 2013 Sale $90.29 8,400 758,397 14,330 Feb 22, 2013, 05:10 PM
CHENEVERT LOUIS Chairman & CEO Feb 19, 2013 Option Exercise $90.78 52,631 4,777,842 487,892 Feb 19, 2013, 05:07 PM
CHENEVERT LOUIS Chairman & CEO Feb 19, 2013 Option Exercise $46.76 70,000 3,273,200 504,466 Feb 19, 2013, 05:07 PM
LONGO PETER F. Vice President, Controller Feb 19, 2013 Sale $91.03 1,477 134,452 18,861 Feb 19, 2013, 05:06 PM
ROGAN THOMAS I Vice President, Treasurer Feb 11, 2013 Option Exercise $89.61 5,626 504,146 34,943 Feb 13, 2013, 05:11 PM
ROGAN THOMAS I Vice President, Treasurer Feb 11, 2013 Option Exercise $89.61 1,929 172,858 33,014 Feb 13, 2013, 05:11 PM
Maurer Michael B President, Sikorsky Aircraft Feb 11, 2013 Option Exercise $89.61 3,337 299,029 11,444 Feb 13, 2013, 05:11 PM
Maurer Michael B President, Sikorsky Aircraft Feb 11, 2013 Option Exercise $89.61 1,139 102,066 10,305 Feb 13, 2013, 05:11 PM
Hess David P President, Pratt & Whitney Feb 11, 2013 Option Exercise $89.61 23,183 2,077,429 72,145 Feb 13, 2013, 05:10 PM
Hess David P President, Pratt & Whitney Feb 11, 2013 Option Exercise $89.61 9,688 868,142 62,457 Feb 13, 2013, 05:10 PM
HAYES GREGORY SVP and CFO Feb 11, 2013 Option Exercise $89.61 24,056 2,155,658 70,553 Feb 13, 2013, 05:10 PM
HAYES GREGORY SVP and CFO Feb 11, 2013 Option Exercise $89.61 10,134 908,108 60,419 Feb 13, 2013, 05:10 PM
CHENEVERT LOUIS Chairman & CEO Feb 11, 2013 Option Exercise $89.61 84,390 7,562,188 475,645 Feb 13, 2013, 05:10 PM
CHENEVERT LOUIS Chairman & CEO Feb 11, 2013 Option Exercise $89.61 41,179 3,690,050 434,466 Feb 13, 2013, 05:10 PM
Gill Charles D Senior VP and General Counsel Feb 11, 2013 Option Exercise $89.61 16,878 1,512,438 27,260 Feb 13, 2013, 05:10 PM
Gill Charles D Senior VP and General Counsel Feb 11, 2013 Option Exercise $89.61 6,628 593,935 20,632 Feb 13, 2013, 05:10 PM
BELLEMARE ALAIN Pres. & CEO, UTC Prop. & Aero. Feb 11, 2013 Option Exercise $89.61 22,504 2,016,583 48,558 Feb 13, 2013, 05:10 PM
BELLEMARE ALAIN Pres. & CEO, UTC Prop. & Aero. Feb 11, 2013 Option Exercise $89.61 10,059 901,387 38,499 Feb 13, 2013, 05:10 PM
BELLEMARE ALAIN Pres. & CEO, UTC Prop. & Aero. Feb 12, 2013 Sale $89.91 8,686 780,973 37,149 Feb 13, 2013, 05:10 PM
Baranda Riva, Pedro Sainz De President, Otis Elevator Feb 11, 2013 Option Exercise $89.61 2,455 219,993 3,355 Feb 13, 2013, 05:10 PM
Baranda Riva, Pedro Sainz De President, Otis Elevator Feb 11, 2013 Option Exercise $89.61 837 75,004 2,518 Feb 13, 2013, 05:10 PM
DARNIS GERAUD Pres. & CEO, UTC Climate, Cont Feb 11, 2013 Option Exercise $89.61 23,862 2,138,274 102,199 Feb 13, 2013, 05:09 PM
DARNIS GERAUD Pres. & CEO, UTC Climate, Cont Feb 11, 2013 Option Exercise $89.61 6,092 545,904 96,107 Feb 13, 2013, 05:09 PM
Amato Elizabeth B SVP, Human Resources & Org. Feb 11, 2013 Option Exercise $89.61 2,532 226,893 14,416 Feb 13, 2013, 05:09 PM
Amato Elizabeth B SVP, Human Resources & Org. Feb 11, 2013 Option Exercise $89.61 86 7,706 14,330 Feb 13, 2013, 05:09 PM
LONGO PETER F. Vice President, Controller Feb 11, 2013 Option Exercise $89.61 2,988 267,755 21,120 Feb 13, 2013, 05:09 PM
LONGO PETER F. Vice President, Controller Feb 11, 2013 Option Exercise $89.61 782 70,075 20,338 Feb 13, 2013, 05:09 PM
LONGO PETER F. Vice President, Controller Feb 12, 2013 Option Exercise $46.76 3,800 177,688 24,138 Feb 13, 2013, 05:09 PM
LONGO PETER F. Vice President, Controller Feb 12, 2013 Sale $90.00 3,800 342,000 20,338 Feb 13, 2013, 05:09 PM
Baranda Riva, Pedro Sainz De President, Otis Elevator Feb 07, 2013 Option Exercise $46.76 5,400 252,504 6,300 Feb 07, 2013, 05:16 PM
Baranda Riva, Pedro Sainz De President, Otis Elevator Feb 07, 2013 Sale $89.20 5,400 481,683 900 Feb 07, 2013, 05:16 PM
Maurer Michael B President, Sikorsky Aircraft Jan 31, 2013 Option Exercise $46.76 15,000 701,400 23,107 Feb 01, 2013, 05:06 PM
Maurer Michael B President, Sikorsky Aircraft Jan 31, 2013 Sale $88.85 15,000 1,332,797 8,107 Feb 01, 2013, 05:06 PM
BELLEMARE ALAIN Pres. & CEO, UTC Prop. & Aero. Jan 24, 2013 Option Exercise $46.76 10,000 467,600 36,054 Jan 25, 2013, 05:19 PM
BELLEMARE ALAIN Pres. & CEO, UTC Prop. & Aero. Jan 24, 2013 Sale $87.85 10,000 878,500 26,054 Jan 25, 2013, 05:19 PM
LONGO PETER F. Vice President, Controller Jan 24, 2013 Option Exercise $46.76 10,000 467,600 28,132 Jan 25, 2013, 05:19 PM
LONGO PETER F. Vice President, Controller Jan 24, 2013 Sale $88.48 10,000 884,821 18,132 Jan 25, 2013, 05:19 PM
CHENEVERT LOUIS Chairman & CEO Jan 24, 2013 Option Exercise $46.76 70,000 3,273,200 452,712 Jan 25, 2013, 05:19 PM
CHENEVERT LOUIS Chairman & CEO Jan 24, 2013 Sale $88.52 9,830 870,178 442,882 Jan 25, 2013, 05:19 PM
Gill Charles D Senior VP and General Counsel Jan 24, 2013 Sale $88.41 4,750 419,959 10,382 Jan 25, 2013, 05:19 PM
DARNIS GERAUD Pres. & CEO, UTC Climate, Cont Jan 24, 2013 Option Exercise $88.60 104,759 9,281,574 187,910 Jan 25, 2013, 05:18 PM
DARNIS GERAUD Pres. & CEO, UTC Climate, Cont Jan 24, 2013 Option Exercise $46.76 140,000 6,546,400 218,337 Jan 25, 2013, 05:18 PM
DARNIS GERAUD Pres. & CEO, UTC Climate, Cont Jan 24, 2013 Sale $88.60 35,241 3,122,353 152,669 Jan 25, 2013, 05:18 PM
CHENEVERT LOUIS Chairman & CEO Dec 07, 2012 Sale $81.01 13,990 1,133,303 382,712 Dec 07, 2012, 05:29 PM
MCCORMICK RICHARD D Director Dec 06, 2012 Option Exercise $40.76 21,000 855,945 60,788 Dec 07, 2012, 05:09 PM
MCCORMICK RICHARD D Director Dec 06, 2012 Sale $80.60 10,634 857,083 50,154 Dec 07, 2012, 05:09 PM
Bowler J Thomas JR SVP, Human Resources and Org. Dec 05, 2012 Sale $80.38 7,137 573,643 36,313 Dec 06, 2012, 05:03 PM
CHENEVERT LOUIS Chairman & CEO Nov 29, 2012 Option Exercise $31.70 42,500 1,347,462 424,602 Dec 03, 2012, 05:11 PM
CHENEVERT LOUIS Chairman & CEO Nov 30, 2012 Option Exercise $31.70 42,500 1,347,462 424,602 Dec 03, 2012, 05:11 PM
CHENEVERT LOUIS Chairman & CEO Nov 30, 2012 Sale $80.30 27,900 2,240,419 419,039 Dec 03, 2012, 05:11 PM
CHENEVERT LOUIS Chairman & CEO Nov 29, 2012 Sale $80.00 42,500 3,400,000 382,102 Dec 03, 2012, 05:11 PM
LONGO PETER F. Vice President, Controller Nov 30, 2012 Option Exercise $31.70 5,000 158,525 23,013 Nov 30, 2012, 05:12 PM
LONGO PETER F. Vice President, Controller Nov 30, 2012 Sale $79.90 5,000 399,497 18,013 Nov 30, 2012, 05:12 PM
ROGAN THOMAS I Vice President, Treasurer Nov 06, 2012 Sale $79.40 5,679 450,913 29,317 Nov 06, 2012, 05:18 PM
ROGAN THOMAS I Vice President, Treasurer Nov 01, 2012 Option Exercise $79.06 11,021 871,320 41,694 Nov 05, 2012, 05:25 PM
ROGAN THOMAS I Vice President, Treasurer Nov 01, 2012 Option Exercise $31.70 16,700 529,473 46,017 Nov 05, 2012, 05:25 PM
GORELICK JAMIE S Director Oct 31, 2012 Option Exercise $30.52 8,000 244,200 15,296 Nov 01, 2012, 05:24 PM
GORELICK JAMIE S Director Oct 31, 2012 Sale $78.90 8,000 631,169 7,296 Nov 01, 2012, 05:24 PM
Maurer Michael B President, Sikorsky Aircraft Jul 01, 2012 Option Exercise $75.04 1,038 77,892 8,107 Oct 19, 2012, 05:34 PM
Amato Elizabeth B SVP, Human Resources & Org. Sep 14, 2012 Option Exercise $31.70 10,000 317,050 21,844 Sep 18, 2012, 06:12 PM
Amato Elizabeth B SVP, Human Resources & Org. Sep 14, 2012 Sale $82.24 10,000 822,420 11,844 Sep 18, 2012, 06:12 PM
CHENEVERT LOUIS Chairman & CEO Sep 14, 2012 Option Exercise $82.45 55,352 4,563,772 414,788 Sep 18, 2012, 05:16 PM
CHENEVERT LOUIS Chairman & CEO Mar 12, 2012 Option Exercise $83.96 10,334 867,643 366,454 Sep 18, 2012, 05:16 PM
CHENEVERT LOUIS Chairman & CEO Sep 14, 2012 Option Exercise $31.70 85,000 2,694,925 451,454 Sep 18, 2012, 05:16 PM
CHENEVERT LOUIS Chairman & CEO Sep 14, 2012 Sale $81.77 14,000 1,144,826 437,454 Sep 18, 2012, 05:16 PM
Bowler J Thomas JR SVP, Human Resources and Org. Sep 14, 2012 Option Exercise $31.70 50,800 1,610,614 77,790 Sep 18, 2012, 05:13 PM
Bowler J Thomas JR SVP, Human Resources and Org. Sep 14, 2012 Sale $82.01 50,800 4,166,077 26,990 Sep 18, 2012, 05:13 PM
VILLENEUVE ANDRE F H Director Sep 12, 2012 Option Exercise $36.85 15,000 552,795 15,000 Sep 14, 2012, 05:06 PM
VILLENEUVE ANDRE F H Director Sep 12, 2012 Sale $79.07 15,000 1,185,982 0 Sep 14, 2012, 05:06 PM
LONGO PETER F. Vice President, Controller Aug 17, 2012 Option Exercise $31.70 10,800 342,414 28,692 Aug 21, 2012, 05:17 PM
LONGO PETER F. Vice President, Controller Aug 17, 2012 Sale $79.68 4,435 353,381 17,892 Aug 21, 2012, 05:17 PM
Amato Elizabeth B SVP, Human Resources & Org. Aug 07, 2012 Option Exercise $31.70 10,000 317,050 15,862 Aug 09, 2012, 05:08 PM
Amato Elizabeth B SVP, Human Resources & Org. Aug 07, 2012 Sale $78.28 10,000 782,812 15,362 Aug 09, 2012, 05:08 PM
Gill Charles D Senior VP and General Counsel Aug 08, 2012 Sale $78.13 2,750 214,853 17,832 Aug 08, 2012, 05:26 PM
Maurer Michael B President, Sikorsky Aircraft Jul 01, 2012 Option Exercise $75.04 1,031 77,366 8,094 Jul 03, 2012, 05:09 PM
ROGAN THOMAS I Vice President, Treasurer May 04, 2012 Option Exercise $80.91 10,792 873,181 35,861 May 08, 2012, 05:13 PM
ROGAN THOMAS I Vice President, Treasurer May 04, 2012 Option Exercise $31.70 16,700 529,473 40,109 May 08, 2012, 05:13 PM
Baranda Riva, Pedro Sainz De President, Otis Elevator May 01, 2012 Sale $82.11 2,164 177,694 2,964 May 02, 2012, 05:10 PM
Baranda Riva, Pedro Sainz De President, Otis Elevator Mar 28, 2012 Option Exercise $83.11 1,336 111,035 3,064 Mar 28, 2012, 06:16 PM
Baranda Riva, Pedro Sainz De President, Otis Elevator Mar 28, 2012 Option Exercise $31.70 3,500 110,967 4,400 Mar 28, 2012, 06:16 PM
WHITMAN CHRISTINE TODD Director Feb 15, 2012 Sale $83.58 400 33,433 0 Mar 22, 2012, 05:13 PM
LONGO PETER F. Vice President, Controller Feb 22, 2012 Option Exercise $31.70 10,000 317,050 27,678 Feb 24, 2012, 05:19 PM
Gill Charles D Senior VP and General Counsel Feb 22, 2012 Sale $84.01 3,000 252,019 20,782 Feb 24, 2012, 05:19 PM
LONGO PETER F. Vice President, Controller Feb 24, 2012 Sale $83.97 374 31,405 0 Feb 24, 2012, 05:19 PM
LONGO PETER F. Vice President, Controller Feb 22, 2012 Sale $83.81 10,000 838,140 17,678 Feb 24, 2012, 05:19 PM
Dumais Michael R President, Hamilton Sundstrand Feb 14, 2012 Option Exercise $46.76 18,000 841,680 22,657 Feb 16, 2012, 05:31 PM
Dumais Michael R President, Hamilton Sundstrand Feb 14, 2012 Sale $84.50 18,000 1,521,000 4,657 Feb 16, 2012, 05:31 PM
BELLEMARE ALAIN Pres. & COO, UTC Prop. & Aero. Feb 13, 2012 Sale $84.25 6,174 520,177 32,128 Feb 15, 2012, 05:15 PM
Hess David P President, Pratt & Whitney Feb 10, 2012 Option Exercise $83.24 155,797 12,968,542 48,962 Feb 14, 2012, 05:15 PM
Hess David P President, Pratt & Whitney Feb 10, 2012 Option Exercise $69.72 186,000 12,968,660 234,962 Feb 14, 2012, 05:15 PM
Hess David P President, Pratt & Whitney Feb 10, 2012 Sale $83.28 30,203 2,515,194 204,759 Feb 14, 2012, 05:15 PM
LONGO PETER F. Vice President, Controller Feb 06, 2012 Option Exercise $80.57 2,299 185,230 18,105 Feb 08, 2012, 05:19 PM
LONGO PETER F. Vice President, Controller Feb 06, 2012 Option Exercise $80.57 427 34,403 17,678 Feb 08, 2012, 05:19 PM
ROGAN THOMAS I Vice President, Treasurer Feb 06, 2012 Option Exercise $80.57 4,386 353,380 24,893 Feb 08, 2012, 05:19 PM
ROGAN THOMAS I Vice President, Treasurer Feb 06, 2012 Option Exercise $80.57 1,484 119,566 23,409 Feb 08, 2012, 05:19 PM
Michaud-Daniel Didier President, Otis Elevator Feb 06, 2012 Option Exercise $80.57 9,282 747,851 9,282 Feb 08, 2012, 05:19 PM
Michaud-Daniel Didier President, Otis Elevator Feb 06, 2012 Option Exercise $80.57 4,008 322,925 5,274 Feb 08, 2012, 05:19 PM
BELLEMARE ALAIN Pres. & COO, UTC Prop. & Aero. Feb 06, 2012 Option Exercise $80.57 9,282 747,851 35,336 Feb 08, 2012, 05:19 PM
BELLEMARE ALAIN Pres. & COO, UTC Prop. & Aero. Feb 06, 2012 Option Exercise $80.57 3,108 250,412 32,228 Feb 08, 2012, 05:19 PM
HAYES GREGORY SVP and CFO Feb 06, 2012 Option Exercise $80.57 16,473 1,327,230 52,418 Feb 08, 2012, 05:19 PM
HAYES GREGORY SVP and CFO Feb 06, 2012 Option Exercise $80.57 5,921 477,055 46,497 Feb 08, 2012, 05:19 PM
Pino Jeffrey P President, Sikorsky Aircraft Feb 06, 2012 Option Exercise $80.57 11,322 912,214 34,067 Feb 08, 2012, 05:18 PM
Pino Jeffrey P President, Sikorsky Aircraft Feb 06, 2012 Option Exercise $80.57 3,796 305,844 30,271 Feb 08, 2012, 05:18 PM
CHENEVERT LOUIS Chairman & CEO Feb 06, 2012 Option Exercise $80.57 51,510 4,150,161 397,942 Feb 08, 2012, 05:18 PM
CHENEVERT LOUIS Chairman & CEO Feb 06, 2012 Option Exercise $80.57 21,154 1,704,378 376,788 Feb 08, 2012, 05:18 PM
Gill Charles D Senior VP and General Counsel Feb 06, 2012 Option Exercise $80.57 8,772 706,760 23,822 Feb 08, 2012, 05:18 PM
Gill Charles D Senior VP and General Counsel Feb 06, 2012 Option Exercise $80.57 2,940 236,876 20,882 Feb 08, 2012, 05:18 PM
Hess David P President, Pratt & Whitney Feb 06, 2012 Option Exercise $80.57 13,362 1,076,576 53,536 Feb 08, 2012, 05:17 PM
Hess David P President, Pratt & Whitney Feb 06, 2012 Option Exercise $80.57 4,574 368,527 48,962 Feb 08, 2012, 05:17 PM
Dumais Michael R President, Hamilton Sundstrand Feb 06, 2012 Option Exercise $80.57 2,418 194,818 5,499 Feb 08, 2012, 05:17 PM
Dumais Michael R President, Hamilton Sundstrand Feb 06, 2012 Option Exercise $80.57 842 67,840 4,657 Feb 08, 2012, 05:17 PM
Bowler J Thomas JR SVP, Human Resources and Org. Feb 06, 2012 Option Exercise $80.57 8,517 686,215 29,843 Feb 08, 2012, 05:17 PM
Bowler J Thomas JR SVP, Human Resources and Org. Feb 06, 2012 Option Exercise $80.57 2,853 229,866 26,990 Feb 08, 2012, 05:17 PM
DARNIS GERAUD Pres. & CEO, UTC Climate, Cont Feb 06, 2012 Option Exercise $80.57 16,728 1,347,775 98,429 Feb 07, 2012, 05:31 PM
DARNIS GERAUD Pres. & CEO, UTC Climate, Cont Feb 06, 2012 Option Exercise $80.57 7,229 582,441 91,200 Feb 07, 2012, 05:31 PM
DARNIS GERAUD Pres. & CEO, UTC Climate, Cont Feb 03, 2012 Option Exercise $31.70 30,000 951,150 111,701 Feb 07, 2012, 05:31 PM
DARNIS GERAUD Pres. & CEO, UTC Climate, Cont Feb 03, 2012 Sale $80.89 30,000 2,426,700 81,701 Feb 07, 2012, 05:31 PM
Michaud-Daniel Didier President, Otis Elevator Feb 01, 2012 Option Exercise $79.93 54,310 4,340,998 0 Feb 03, 2012, 05:21 PM
Michaud-Daniel Didier President, Otis Elevator Feb 01, 2012 Option Exercise $54.95 79,000 4,341,050 90,715 Feb 03, 2012, 05:21 PM
Michaud-Daniel Didier President, Otis Elevator Feb 01, 2012 Sale $79.98 36,405 2,911,643 90,615 Feb 03, 2012, 05:21 PM
GORELICK JAMIE S Director Dec 19, 2011 Option Exercise $30.67 1,520 46,626 8,816 Dec 20, 2011, 05:06 PM
GORELICK JAMIE S Director Dec 19, 2011 Sale $72.70 1,520 110,504 7,296 Dec 20, 2011, 05:06 PM
VILLENEUVE ANDRE F H Director Dec 19, 2011 Option Exercise $37.50 5,000 187,500 5,000 Dec 20, 2011, 05:05 PM
VILLENEUVE ANDRE F H Director Dec 19, 2011 Sale $72.70 5,000 363,500 0 Dec 20, 2011, 05:05 PM
GARNIER JEAN PIERRE Director Dec 19, 2011 Option Exercise $37.50 5,000 187,500 15,265 Dec 20, 2011, 05:05 PM
GARNIER JEAN PIERRE Director Dec 19, 2011 Sale $72.76 3,555 258,663 13,910 Dec 20, 2011, 05:05 PM
BUCKHOUT SCOTT A. President, UTC Fire & Security Dec 05, 2011 Sale $78.00 2,399 187,122 3,029 Dec 05, 2011, 05:42 PM
ROGAN THOMAS I Vice President, Treasurer Oct 28, 2011 Option Exercise $79.30 23,188 1,838,808 34,706 Oct 28, 2011, 05:17 PM
ROGAN THOMAS I Vice President, Treasurer Oct 28, 2011 Option Exercise $32.17 35,000 1,125,950 55,507 Oct 28, 2011, 05:17 PM
ROGAN THOMAS I Vice President, Treasurer Oct 28, 2011 Sale $79.36 11,812 937,454 51,695 Oct 28, 2011, 05:17 PM
Bowler J Thomas JR SVP, Human Resources and Org. Oct 27, 2011 Option Exercise $32.17 30,000 965,100 51,326 Oct 28, 2011, 05:03 PM
Bowler J Thomas JR SVP, Human Resources and Org. Oct 27, 2011 Sale $79.60 30,000 2,388,000 21,326 Oct 28, 2011, 05:03 PM
Hess David P President, Pratt & Whitney Oct 25, 2011 Option Exercise $46.76 40,000 1,870,400 80,174 Oct 27, 2011, 05:02 PM
Hess David P President, Pratt & Whitney Oct 25, 2011 Sale $75.83 40,000 3,033,316 40,174 Oct 27, 2011, 05:02 PM
DARNIS GERAUD Pres. & CEO, UTC Climate, Cont Oct 25, 2011 Option Exercise $76.65 20,023 1,534,763 121,224 Oct 26, 2011, 05:14 PM
DARNIS GERAUD Pres. & CEO, UTC Climate, Cont Oct 25, 2011 Option Exercise $31.70 30,000 951,150 138,814 Oct 26, 2011, 05:14 PM
DARNIS GERAUD Pres. & CEO, UTC Climate, Cont Oct 25, 2011 Sale $75.15 9,977 749,785 135,714 Oct 26, 2011, 05:14 PM
GORELICK JAMIE S Director Oct 20, 2011 Option Exercise $37.50 5,000 187,500 10,494 Oct 20, 2011, 05:51 PM
GORELICK JAMIE S Director Oct 20, 2011 Sale $73.41 5,000 367,065 10,482 Oct 20, 2011, 05:51 PM
DARNIS GERAUD President, Carrier Corporation Aug 25, 2011 Option Exercise $70.75 13,740 972,105 124,037 Aug 26, 2011, 05:14 PM
DARNIS GERAUD President, Carrier Corporation Aug 25, 2011 Option Exercise $31.70 20,000 634,100 128,814 Aug 26, 2011, 05:14 PM
DARNIS GERAUD President, Carrier Corporation Aug 26, 2011 Sale $70.05 6,260 438,513 108,814 Aug 26, 2011, 05:14 PM
GORELICK JAMIE S Director Aug 16, 2011 Option Exercise $32.17 5,000 160,850 10,494 Aug 17, 2011, 05:46 PM
GORELICK JAMIE S Director Aug 16, 2011 Sale $72.70 5,000 363,500 5,494 Aug 17, 2011, 05:46 PM
BELLEMARE ALAIN President, Hamilton Sundstrand May 04, 2011 Option Exercise $46.76 10,000 467,600 36,054 May 05, 2011, 07:32 PM
BELLEMARE ALAIN President, Hamilton Sundstrand May 04, 2011 Sale $89.15 10,000 891,478 35,954 May 05, 2011, 07:32 PM
Brown William M SVP, Corporate Strategy & Deve May 02, 2011 Option Exercise $32.17 33,400 1,074,478 60,269 May 03, 2011, 05:13 PM
Brown William M SVP, Corporate Strategy & Deve May 02, 2011 Sale $90.35 33,400 3,017,542 60,169 May 03, 2011, 05:13 PM
JOHRI AKHIL VP, Financial Planning & IR Apr 28, 2011 Sale $88.90 2,245 199,589 15,092 Apr 29, 2011, 05:14 PM
LONGO PETER F. Vice President, Controller Apr 25, 2011 Option Exercise $32.17 23,400 752,778 38,859 Apr 26, 2011, 05:14 PM
LONGO PETER F. Vice President, Controller Apr 25, 2011 Sale $86.51 23,400 2,024,438 38,759 Apr 26, 2011, 05:14 PM
Gill Charles D Senior VP and General Counsel Apr 21, 2011 Sale $86.00 3,500 301,000 15,050 Apr 21, 2011, 05:18 PM
DARNIS GERAUD President, Carrier Corporation Apr 21, 2011 Option Exercise $85.90 25,637 2,202,218 123,578 Apr 21, 2011, 05:18 PM
DARNIS GERAUD President, Carrier Corporation Apr 21, 2011 Option Exercise $31.70 40,000 1,268,200 148,814 Apr 21, 2011, 05:18 PM
DARNIS GERAUD President, Carrier Corporation Apr 21, 2011 Sale $86.79 14,363 1,246,497 148,414 Apr 21, 2011, 05:18 PM
CHENEVERT LOUIS Chairman & CEO Feb 22, 2011 Option Exercise $85.01 45,192 3,841,772 372,922 Feb 23, 2011, 05:29 PM
CHENEVERT LOUIS Chairman & CEO Feb 22, 2011 Option Exercise $32.17 70,000 2,251,900 407,125 Feb 23, 2011, 05:29 PM
CHENEVERT LOUIS Chairman & CEO Feb 22, 2011 Sale $83.98 15,501 1,301,708 406,725 Feb 23, 2011, 05:29 PM
Gill Charles D Senior VP and General Counsel Feb 22, 2011 Option Exercise $85.01 8,999 765,005 25,481 Feb 23, 2011, 05:29 PM
Gill Charles D Senior VP and General Counsel Feb 22, 2011 Option Exercise $46.76 12,600 589,176 27,549 Feb 23, 2011, 05:29 PM
Bowler J Thomas JR SVP, Human Resources and Org. Feb 14, 2011 Option Exercise $32.17 15,000 482,550 36,326 Feb 15, 2011, 05:06 PM
Bowler J Thomas JR SVP, Human Resources and Org. Feb 14, 2011 Sale $85.01 15,000 1,275,205 36,226 Feb 15, 2011, 05:06 PM
Pino Jeffrey P President, Sikorsky Aircraft Feb 10, 2011 Option Exercise $41.77 47,000 1,963,020 69,745 Feb 11, 2011, 05:09 PM
Pino Jeffrey P President, Sikorsky Aircraft Feb 10, 2011 Sale $84.55 47,000 3,973,881 69,600 Feb 11, 2011, 05:09 PM
Brown William M President, UTC Fire & Security Feb 08, 2011 Option Exercise $83.66 12,384 1,036,045 31,009 Feb 09, 2011, 05:56 PM
Brown William M President, UTC Fire & Security Feb 08, 2011 Option Exercise $83.66 4,140 346,352 26,869 Feb 09, 2011, 05:56 PM
LONGO PETER F. Vice President, Controller Feb 08, 2011 Option Exercise $83.66 2,666 223,038 16,339 Feb 09, 2011, 05:56 PM
LONGO PETER F. Vice President, Controller Feb 08, 2011 Option Exercise $83.66 908 75,963 15,431 Feb 09, 2011, 05:56 PM
Pino Jeffrey P President, Sikorsky Aircraft Feb 08, 2011 Option Exercise $83.66 11,266 942,514 26,481 Feb 09, 2011, 05:56 PM
Pino Jeffrey P President, Sikorsky Aircraft Feb 08, 2011 Option Exercise $83.66 3,736 312,554 22,745 Feb 09, 2011, 05:56 PM
CHENEVERT LOUIS Chairman & CEO Feb 08, 2011 Option Exercise $83.66 44,806 3,748,470 355,382 Feb 09, 2011, 05:56 PM
ROGAN THOMAS I Vice President, Treasurer Feb 08, 2011 Option Exercise $83.66 4,558 381,322 22,468 Feb 09, 2011, 05:56 PM
Hess David P President, Pratt & Whitney Feb 08, 2011 Option Exercise $83.66 13,502 1,129,577 44,824 Feb 09, 2011, 05:56 PM
CHENEVERT LOUIS Chairman & CEO Feb 08, 2011 Option Exercise $83.66 18,257 1,527,381 337,125 Feb 09, 2011, 05:56 PM
ROGAN THOMAS I Vice President, Treasurer Feb 08, 2011 Option Exercise $83.66 1,961 164,057 20,507 Feb 09, 2011, 05:56 PM
Hess David P President, Pratt & Whitney Feb 08, 2011 Option Exercise $83.66 4,650 389,019 40,174 Feb 09, 2011, 05:56 PM
Michaud-Daniel Didier President, Otis Elevator Feb 08, 2011 Option Exercise $83.66 3,225 269,804 13,100 Feb 09, 2011, 05:56 PM
Michaud-Daniel Didier President, Otis Elevator Feb 08, 2011 Option Exercise $83.66 1,385 115,869 11,715 Feb 09, 2011, 05:56 PM
DARNIS GERAUD President, Carrier Corporation Feb 08, 2011 Option Exercise $83.66 19,608 1,640,405 116,074 Feb 09, 2011, 05:55 PM
DARNIS GERAUD President, Carrier Corporation Feb 08, 2011 Option Exercise $83.66 7,260 607,372 108,814 Feb 09, 2011, 05:55 PM
Gill Charles D Senior VP and General Counsel Feb 08, 2011 Option Exercise $83.66 9,030 755,450 17,937 Feb 09, 2011, 05:55 PM
Gill Charles D Senior VP and General Counsel Feb 08, 2011 Option Exercise $83.66 2,988 249,976 14,949 Feb 09, 2011, 05:55 PM
HAYES GREGORY SVP and CFO Feb 08, 2011 Option Exercise $83.66 11,266 942,514 39,673 Feb 09, 2011, 05:55 PM
HAYES GREGORY SVP and CFO Feb 08, 2011 Option Exercise $83.66 3,728 311,884 35,945 Feb 09, 2011, 05:55 PM
Bowler J Thomas JR SVP, Human Resources and Org. Feb 08, 2011 Option Exercise $83.66 8,428 705,087 24,111 Feb 09, 2011, 05:55 PM
Bowler J Thomas JR SVP, Human Resources and Org. Feb 08, 2011 Option Exercise $83.66 2,785 232,993 21,326 Feb 09, 2011, 05:55 PM
BELLEMARE ALAIN President, Hamilton Sundstrand Feb 08, 2011 Option Exercise $83.66 7,912 661,918 40,683 Feb 09, 2011, 05:55 PM
BELLEMARE ALAIN President, Hamilton Sundstrand Feb 08, 2011 Option Exercise $83.66 2,629 219,942 26,054 Feb 09, 2011, 05:55 PM
BELLEMARE ALAIN President, Hamilton Sundstrand Feb 08, 2011 Option Exercise $46.76 12,000 561,120 32,771 Feb 09, 2011, 05:55 PM
BELLEMARE ALAIN President, Hamilton Sundstrand Feb 08, 2011 Sale $83.73 12,000 1,004,734 40,595 Feb 09, 2011, 05:55 PM
ROGAN THOMAS I Vice President, Treasurer Feb 02, 2011 Option Exercise $82.16 33,669 2,766,245 57,672 Feb 04, 2011, 05:34 PM
ROGAN THOMAS I Vice President, Treasurer Feb 02, 2011 Option Exercise $38.50 50,000 1,925,000 67,910 Feb 04, 2011, 05:34 PM
ROGAN THOMAS I Vice President, Treasurer Feb 03, 2011 Sale $81.97 16,331 1,338,619 34,141 Feb 04, 2011, 05:34 PM
Pino Jeffrey P President, Sikorsky Aircraft Jan 27, 2011 Sale $82.50 850 70,125 15,215 Jan 28, 2011, 05:11 PM
Michaud-Daniel Didier President, Otis Elevator Jan 27, 2011 Option Exercise $31.70 26,600 843,353 36,475 Jan 28, 2011, 05:11 PM
Michaud-Daniel Didier President, Otis Elevator Jan 27, 2011 Sale $82.28 26,600 2,188,725 36,175 Jan 28, 2011, 05:11 PM
Bowler J Thomas JR SVP, Human Resources and Org. Dec 31, 2010 Option Exercise $38.50 36,000 1,386,000 51,683 Jan 04, 2011, 05:09 PM
Bowler J Thomas JR SVP, Human Resources and Org. Dec 31, 2010 Sale $78.64 36,000 2,831,211 48,683 Jan 04, 2011, 05:09 PM
BELLEMARE ALAIN President, Hamilton Sundstrand Dec 15, 2010 Sale $79.13 3,500 276,962 20,771 Dec 16, 2010, 05:23 PM
DARNIS GERAUD President, Carrier Corporation Dec 14, 2010 Option Exercise $78.85 66,284 5,226,493 170,981 Dec 15, 2010, 06:14 PM
DARNIS GERAUD President, Carrier Corporation Dec 14, 2010 Option Exercise $32.17 100,000 3,217,000 196,466 Dec 15, 2010, 06:14 PM
DARNIS GERAUD President, Carrier Corporation Dec 15, 2010 Sale $78.90 33,716 2,660,201 129,982 Dec 15, 2010, 06:14 PM
MCCORMICK RICHARD D Director Dec 02, 2010 Option Exercise $38.37 10,000 383,750 44,664 Dec 03, 2010, 05:30 PM
MCCORMICK RICHARD D Director Dec 02, 2010 Sale $78.84 4,876 384,431 44,564 Dec 03, 2010, 05:30 PM
CHENEVERT LOUIS Chairman & CEO Dec 02, 2010 Option Exercise $78.70 66,271 5,215,527 370,453 Dec 03, 2010, 05:29 PM
CHENEVERT LOUIS Chairman & CEO Dec 02, 2010 Option Exercise $32.17 100,000 3,217,000 395,847 Dec 03, 2010, 05:29 PM
CHENEVERT LOUIS Chairman & CEO Dec 03, 2010 Sale $78.48 19,000 1,491,098 329,176 Dec 03, 2010, 05:29 PM
ROGAN THOMAS I Vice President, Treasurer Dec 01, 2010 Option Exercise $78.26 35,526 2,780,265 64,939 Dec 02, 2010, 06:13 PM
ROGAN THOMAS I Vice President, Treasurer Dec 01, 2010 Option Exercise $38.50 50,000 1,925,000 67,910 Dec 02, 2010, 06:13 PM
ROGAN THOMAS I Vice President, Treasurer Dec 02, 2010 Sale $79.15 14,474 1,145,682 32,284 Dec 02, 2010, 06:13 PM
Bowler J Thomas JR SVP, Human Resources and Org. Dec 01, 2010 Option Exercise $38.50 36,000 1,386,000 51,683 Dec 02, 2010, 06:05 PM
Bowler J Thomas JR SVP, Human Resources and Org. Dec 01, 2010 Sale $77.57 36,000 2,792,387 43,296 Dec 02, 2010, 06:05 PM
Hess David P President, Pratt & Whitney Nov 11, 2010 Option Exercise $75.19 77,557 5,831,511 31,322 Nov 12, 2010, 05:04 PM
Hess David P President, Pratt & Whitney Nov 11, 2010 Option Exercise $57.17 102,000 5,831,560 133,322 Nov 12, 2010, 05:04 PM
Hess David P President, Pratt & Whitney Nov 11, 2010 Sale $75.23 24,443 1,838,728 133,022 Nov 12, 2010, 05:04 PM
Brown William M President, UTC Fire & Security Nov 09, 2010 Option Exercise $31.70 44,000 1,395,020 62,625 Nov 10, 2010, 05:08 PM
Brown William M President, UTC Fire & Security Nov 09, 2010 Sale $76.51 44,000 3,366,521 62,536 Nov 10, 2010, 05:08 PM
SWYGERT H PATRICK Director Nov 09, 2010 Option Exercise $47.06 13,000 611,745 14,000 Nov 10, 2010, 05:08 PM
SWYGERT H PATRICK Director Nov 09, 2010 Sale $76.50 13,000 994,500 13,900 Nov 10, 2010, 05:08 PM
CHENEVERT LOUIS Chairman & CEO Nov 05, 2010 Option Exercise $76.24 71,785 5,472,888 346,346 Nov 09, 2010, 05:20 PM
CHENEVERT LOUIS Chairman & CEO Nov 05, 2010 Option Exercise $38.50 100,000 3,850,000 384,532 Nov 09, 2010, 05:20 PM
CHENEVERT LOUIS Chairman & CEO Nov 05, 2010 Sale $76.46 16,900 1,292,146 378,417 Nov 09, 2010, 05:20 PM
BELLEMARE ALAIN President, Hamilton Sundstrand Oct 28, 2010 Sale $75.00 5,000 375,000 24,271 Oct 29, 2010, 05:10 PM
Brown William M President, UTC Fire & Security Oct 21, 2010 Option Exercise $38.50 100,000 3,850,000 118,625 Oct 25, 2010, 05:20 PM
Brown William M President, UTC Fire & Security Oct 21, 2010 Sale $75.07 100,000 7,506,514 118,525 Oct 25, 2010, 05:20 PM
SWYGERT H PATRICK Director Sep 14, 2010 Option Exercise $33.21 13,000 431,700 14,000 Sep 15, 2010, 05:35 PM
SWYGERT H PATRICK Director Sep 14, 2010 Sale $68.85 13,000 895,051 13,300 Sep 15, 2010, 05:35 PM
CHENEVERT LOUIS Chairman & CEO Aug 10, 2010 Option Exercise $73.39 31,779 2,332,261 307,090 Aug 11, 2010, 05:07 PM
CHENEVERT LOUIS Chairman & CEO Aug 10, 2010 Option Exercise $37.63 44,000 1,655,500 316,311 Aug 11, 2010, 05:07 PM
ROGAN THOMAS I Vice President, Treasurer Jul 23, 2010 Option Exercise $70.90 18,878 1,338,450 39,442 Jul 27, 2010, 05:19 PM
ROGAN THOMAS I Vice President, Treasurer Jul 23, 2010 Option Exercise $37.63 26,400 993,300 44,310 Jul 27, 2010, 05:19 PM
ROGAN THOMAS I Vice President, Treasurer Jul 26, 2010 Sale $71.55 7,522 538,203 17,910 Jul 27, 2010, 05:19 PM
GORELICK JAMIE S Director Jul 26, 2010 Option Exercise $38.56 8,700 335,463 12,321 Jul 27, 2010, 05:19 PM
GORELICK JAMIE S Director Jul 26, 2010 Sale $71.68 8,700 623,639 12,221 Jul 27, 2010, 05:19 PM
Pino Jeffrey P President, Sikorsky Aircraft Jul 26, 2010 Sale $71.53 701 50,144 16,565 Jul 27, 2010, 05:19 PM

Desktop Version

Owner Relationship Date Transaction Value($)
Wood Michael J Corporate VP and Controller Jan 25, 2021 Option Exercise 135,675
O'Brien Anthony F EVP, Chief Financial Officer Jan 25, 2021 Option Exercise 610,306
Kremer Wesley D President, RMD Jan 25, 2021 Option Exercise 469,196
Kennedy Thomas A Executive Chairman Jan 25, 2021 Option Exercise 2,605,997
Jimenez Frank R EVP and General Counsel Jan 25, 2021 Option Exercise 509,030
DaSilva Kevin G Corporate VP and Treasurer Jan 25, 2021 Option Exercise 135,874
Azevedo Roy President, RIS Jan 25, 2021 Option Exercise 314,631
Williams Dantaya M EVP & Chief HR Officer Jan 04, 2021 Option Exercise 62,340
HAYES GREGORY President and CEO Jan 04, 2021 Option Exercise 3,720,813
Dumais Michael R EVP, Operations & Strategy Jan 04, 2021 Option Exercise 849,901
Calio Christopher T. President, P&W Jan 04, 2021 Option Exercise 333,528
Ortberg Robert Kelly Special Advisor to Off of CEO Dec 04, 2020 Option Exercise 387,954
Timm Stephen J. President, Collins Aerospace Nov 13, 2020 Option Exercise 20,771
Ortberg Robert Kelly Special Advisor to Off of CEO Nov 13, 2020 Option Exercise 440,559
Jimenez Frank R EVP and General Counsel Oct 29, 2020 Buy 52,570
Kennedy Thomas A Executive Chairman Oct 29, 2020 Buy 1,000,016
Paliwal Dinesh C Director Oct 29, 2020 Buy 499,546
Winnefeld James A Jr Director Oct 28, 2020 Buy 27,600
HAYES GREGORY President and CEO Oct 28, 2020 Option Exercise 335,447
HAYES GREGORY President and CEO Oct 28, 2020 Buy 3,014,998
Ortberg Robert Kelly Special Advisor to Off of CEO Oct 02, 2020 Option Exercise 1,171,194
Ortberg Robert Kelly Special Advisor to Off of CEO Oct 01, 2020 Option Exercise 118,195
Ortberg Robert Kelly Special Advisor to Off of CEO Sep 08, 2020 Buy 178
HAYES GREGORY President and CEO Oct 01, 2020 Option Exercise 523,116
Dumais Michael R EVP, Operations & Strategy Oct 01, 2020 Option Exercise 130,204
Timm Stephen J. President, Collins Aerospace Oct 02, 2020 Option Exercise 55,839
Timm Stephen J. President, Collins Aerospace Oct 01, 2020 Option Exercise 4,654
O'Brien Anthony F EVP, Chief Financial Officer Sep 14, 2020 Option Exercise 199,543
Kremer Wesley D President, RMD Sep 14, 2020 Option Exercise 159,759
Azevedo Roy President, RIS Sep 14, 2020 Option Exercise 121,957
Kennedy Thomas A Executive Chairman Sep 14, 2020 Option Exercise 838,454
Winnefeld James A Jr Director Jul 31, 2020 Buy 23,016
DaSilva Kevin G Corporate VP and Treasurer Apr 03, 2020 Option Exercise 39,744
O'Brien Anthony F EVP, Chief Financial Officer Apr 03, 2020 Option Exercise 141,851
Kremer Wesley D President, RMD Apr 03, 2020 Option Exercise 130,517
Azevedo Roy President, RIS Apr 03, 2020 Option Exercise 18,674
Jimenez Frank R EVP and General Counsel Apr 03, 2020 Option Exercise 113,441
Wood Michael J Corporate VP and Controller Apr 03, 2020 Option Exercise 39,744
Kennedy Thomas A Executive Chairman Apr 03, 2020 Option Exercise 412,422
Amato Elizabeth B EVP & Chief HR Officer Mar 04, 2020 Sale 584,041
Amato Elizabeth B EVP & Chief HR Officer Feb 12, 2020 Sale 1,946,940
Gitlin David L. President & CEO, Carrier Feb 12, 2020 Option Exercise 7,711,341
Gitlin David L. President & CEO, Carrier Feb 12, 2020 Option Exercise 7,711,847
Gitlin David L. President & CEO, Carrier Feb 12, 2020 Sale 7,935,947
HAYES GREGORY Chairman, President and CEO Feb 12, 2020 Option Exercise 8,987,883
HAYES GREGORY Chairman, President and CEO Feb 12, 2020 Option Exercise 8,988,000
HAYES GREGORY Chairman, President and CEO Feb 12, 2020 Sale 14,347,069
Dumais Michael R EVP, Operations & Strategy Feb 12, 2020 Option Exercise 1,492,410
Dumais Michael R EVP, Operations & Strategy Feb 12, 2020 Option Exercise 1,492,509
Dumais Michael R EVP, Operations & Strategy Feb 12, 2020 Sale 2,877,103
Whitehouse David R Corp VP, Treasurer Feb 10, 2020 Option Exercise 296,349
Whitehouse David R Corp VP, Treasurer Feb 10, 2020 Option Exercise 93,147
Gill Charles D Executive VP & General Counsel Feb 10, 2020 Option Exercise 2,444,998
Gill Charles D Executive VP & General Counsel Feb 10, 2020 Option Exercise 1,134,361
Calio Christopher T. President, P&W Feb 10, 2020 Option Exercise 624,635
Calio Christopher T. President, P&W Feb 10, 2020 Option Exercise 196,783
HAYES GREGORY Chairman, President and CEO Feb 10, 2020 Option Exercise 9,012,584
HAYES GREGORY Chairman, President and CEO Feb 10, 2020 Option Exercise 4,183,642
Gitlin David L. President & CEO, Carrier Feb 10, 2020 Option Exercise 3,265,946
Gitlin David L. President & CEO, Carrier Feb 10, 2020 Option Exercise 1,285,276
Amato Elizabeth B EVP & Chief HR Officer Feb 10, 2020 Option Exercise 2,444,998
Amato Elizabeth B EVP & Chief HR Officer Feb 10, 2020 Option Exercise 1,134,205
Dumais Michael R EVP, Operations & Strategy Feb 10, 2020 Option Exercise 2,444,998
Dumais Michael R EVP, Operations & Strategy Feb 10, 2020 Option Exercise 1,137,336
Mitchill Neil G. JR Acting Sr. VP & CFO Feb 10, 2020 Option Exercise 624,635
Mitchill Neil G. JR Acting Sr. VP & CFO Feb 10, 2020 Option Exercise 196,627
Bailey Robert J. Corporate VP, Controller Feb 10, 2020 Option Exercise 296,349
Bailey Robert J. Corporate VP, Controller Feb 10, 2020 Option Exercise 97,061
Amato Elizabeth B EVP & Chief HR Officer Dec 12, 2017 Buy 5,435
Amato Elizabeth B EVP & Chief HR Officer Sep 12, 2017 Buy 5,516
Amato Elizabeth B EVP & Chief HR Officer Sep 11, 2018 Buy 5,722
Amato Elizabeth B EVP & Chief HR Officer Jun 12, 2018 Buy 5,389
Amato Elizabeth B EVP & Chief HR Officer Mar 13, 2018 Buy 5,541
Gitlin David L. President & CEO, Carrier Jan 03, 2020 Option Exercise 299,339
HAYES GREGORY Chairman, President and CEO Jan 03, 2020 Option Exercise 1,332,305
LEDUC ROBERT F President, Pratt & Whitney Jan 03, 2020 Option Exercise 384,142
JOHRI AKHIL Special Advisor to Chmn/CEO Jan 03, 2020 Option Exercise 349,638
Gill Charles D Executive VP & General Counsel Jan 03, 2020 Option Exercise 261,922
Amato Elizabeth B EVP & Chief HR Officer Jan 03, 2020 Option Exercise 262,382
Dumais Michael R EVP, Operations & Strategy Jan 03, 2020 Option Exercise 262,842
Whitehouse David R Corp VP, Treasurer Jan 03, 2020 Option Exercise 134,028
Calio Christopher T. Pres, Comm Engines, P&W Jan 03, 2020 Option Exercise 79,129
Mitchill Neil G. JR Acting Sr. VP & CFO Jan 03, 2020 Option Exercise 79,129
Bailey Robert J. Corporate VP, Controller Jan 03, 2020 Option Exercise 52,446
Ortberg Robert Kelly CEO, Collins Aerospace Systems Nov 13, 2019 Option Exercise 460,206
Gill Charles D Executive VP & General Counsel Oct 24, 2019 Sale 521,489
Bailey Robert J. Corporate VP, Controller Nov 07, 2019 Option Exercise 193,992
Bailey Robert J. Corporate VP, Controller Nov 07, 2019 Option Exercise 194,116
Bailey Robert J. Corporate VP, Controller Nov 07, 2019 Sale 193,766
LEDUC ROBERT F President, Pratt & Whitney Nov 04, 2019 Option Exercise 3,835,625
LEDUC ROBERT F President, Pratt & Whitney Nov 04, 2019 Option Exercise 3,835,830
LEDUC ROBERT F President, Pratt & Whitney Nov 04, 2019 Sale 4,877,110
HAYES GREGORY Chairman, President and CEO Nov 04, 2019 Option Exercise 9,108,445
HAYES GREGORY Chairman, President and CEO Nov 04, 2019 Option Exercise 9,108,520
HAYES GREGORY Chairman, President and CEO Nov 04, 2019 Sale 4,136,176
JOHRI AKHIL Special Advisor to Chmn/CEO Nov 04, 2019 Option Exercise 888,627
JOHRI AKHIL Special Advisor to Chmn/CEO Nov 04, 2019 Option Exercise 888,637
JOHRI AKHIL Special Advisor to Chmn/CEO Nov 04, 2019 Sale 770,532
Dumais Michael R EVP, Operations & Strategy Nov 01, 2019 Option Exercise 747,891
Dumais Michael R EVP, Operations & Strategy Nov 01, 2019 Option Exercise 747,900
Dumais Michael R EVP, Operations & Strategy Nov 01, 2019 Sale 956,264
Dumais Michael R EVP, Operations & Strategy Oct 25, 2019 Option Exercise 1,495,763
Dumais Michael R EVP, Operations & Strategy Oct 25, 2019 Option Exercise 1,495,800
Dumais Michael R EVP, Operations & Strategy Oct 25, 2019 Sale 1,655,536
Gill Charles D Executive VP & General Counsel Oct 24, 2019 Option Exercise 1,532,877
Gill Charles D Executive VP & General Counsel Oct 24, 2019 Option Exercise 1,533,000
Gill Charles D Executive VP & General Counsel Oct 24, 2019 Sale 1,061,888
Calio Christopher T. Pres, Comm Engines, P&W Oct 24, 2019 Option Exercise 432,982
Calio Christopher T. Pres, Comm Engines, P&W Oct 24, 2019 Option Exercise 433,028
Calio Christopher T. Pres, Comm Engines, P&W Oct 24, 2019 Sale 396,576
JOHRI AKHIL Executive VP and CFO Sep 11, 2019 Option Exercise 888,593
JOHRI AKHIL Executive VP and CFO Sep 11, 2019 Option Exercise 888,637
JOHRI AKHIL Executive VP and CFO Sep 11, 2019 Sale 633,135
Gill Charles D Executive VP & General Counsel Sep 11, 2019 Option Exercise 5,636,567
Gill Charles D Executive VP & General Counsel Sep 11, 2019 Option Exercise 5,636,830
Gill Charles D Executive VP & General Counsel Sep 11, 2019 Sale 4,559,368
Amato Elizabeth B EVP & Chief HR Officer Sep 12, 2019 Option Exercise 766,201
Amato Elizabeth B EVP & Chief HR Officer Sep 12, 2019 Option Exercise 766,203
Amato Elizabeth B EVP & Chief HR Officer Sep 12, 2019 Sale 564,208
HAYES GREGORY Chairman, President and CEO Sep 06, 2019 Option Exercise 8,135,866
HAYES GREGORY Chairman, President and CEO Sep 06, 2019 Option Exercise 8,135,970
HAYES GREGORY Chairman, President and CEO Sep 06, 2019 Sale 2,605,855
Bailey Robert J. Corporate VP, Controller Sep 09, 2019 Option Exercise 157,897
Bailey Robert J. Corporate VP, Controller Sep 09, 2019 Option Exercise 157,980
Bailey Robert J. Corporate VP, Controller Sep 09, 2019 Sale 112,260
LEDUC ROBERT F President, Pratt & Whitney Sep 09, 2019 Option Exercise 2,053,713
LEDUC ROBERT F President, Pratt & Whitney Sep 09, 2019 Option Exercise 2,053,740
LEDUC ROBERT F President, Pratt & Whitney Sep 09, 2019 Sale 673,652
Gill Charles D Executive VP & General Counsel Sep 04, 2019 Option Exercise 5,252,752
Gill Charles D Executive VP & General Counsel Sep 04, 2019 Option Exercise 5,252,835
Gill Charles D Executive VP & General Counsel Sep 04, 2019 Sale 3,488,239
Dumais Michael R EVP, Operations & Strategy Aug 09, 2019 Option Exercise 754,665
Dumais Michael R EVP, Operations & Strategy Aug 09, 2019 Option Exercise 754,781
Dumais Michael R EVP, Operations & Strategy Aug 09, 2019 Sale 567,015
Amato Elizabeth B EVP & Chief HR Officer Jul 29, 2019 Option Exercise 651,727
Amato Elizabeth B EVP & Chief HR Officer Jul 29, 2019 Option Exercise 651,833
Amato Elizabeth B EVP & Chief HR Officer Jul 29, 2019 Sale 583,292
Dumais Michael R EVP, Operations & Strategy May 01, 2019 Option Exercise 289,673
Bailey Robert J. Corporate VP, Controller Mar 15, 2019 Sale 178,952
Ortberg Robert Kelly CEO, Collins Aerospace Systems Feb 28, 2019 Sale 2,099,788
JOHRI AKHIL Executive VP and CFO Feb 20, 2019 Option Exercise 519,221
JOHRI AKHIL Executive VP and CFO Feb 20, 2019 Option Exercise 519,317
JOHRI AKHIL Executive VP and CFO Feb 20, 2019 Sale 412,467
Gitlin David L. Pres & COO, Collins Aerospace Feb 20, 2019 Sale 923,489
Dumais Michael R EVP, Operations & Strategy Feb 15, 2019 Option Exercise 1,157,186
Dumais Michael R EVP, Operations & Strategy Feb 15, 2019 Option Exercise 1,157,230
Dumais Michael R EVP, Operations & Strategy Feb 15, 2019 Sale 806,885
Amato Elizabeth B EVP & Chief HR Officer Feb 14, 2019 Sale 1,249,435
JOHRI AKHIL Executive VP and CFO Feb 11, 2019 Option Exercise 2,448,509
JOHRI AKHIL Executive VP and CFO Feb 11, 2019 Option Exercise 57,678
HAYES GREGORY Chairman, President and CEO Feb 11, 2019 Option Exercise 7,544,826
HAYES GREGORY Chairman, President and CEO Feb 12, 2019 Option Exercise 6,160,137
HAYES GREGORY Chairman, President and CEO Feb 11, 2019 Option Exercise 3,354,551
HAYES GREGORY Chairman, President and CEO Feb 12, 2019 Option Exercise 6,160,180
HAYES GREGORY Chairman, President and CEO Feb 12, 2019 Sale 4,450,091
Gill Charles D Executive VP & General Counsel Feb 11, 2019 Option Exercise 2,448,509
Gill Charles D Executive VP & General Counsel Feb 12, 2019 Option Exercise 2,184,648
Gill Charles D Executive VP & General Counsel Feb 11, 2019 Option Exercise 987,282
Gill Charles D Executive VP & General Counsel Feb 12, 2019 Option Exercise 2,184,715
Gill Charles D Executive VP & General Counsel Feb 12, 2019 Sale 1,588,141
Amato Elizabeth B EVP & Chief HR Officer Feb 11, 2019 Option Exercise